SUMZM EPPO-ENTC
Flight info
| Callsign | SUMZM |
|---|---|
| Flight time | 6h 19m |
| Altitude | 20000 |
| Route | MAPEX DCT ANFEV DCT REMSA DCT DISRU/N0195F220 DCT DEGAL DCT ASVOB DCT GAJPA DCT NITMU DCT UPEVA DCT ABASU/N0192F230 |
| Aircraft | PC12/L-SDFGRWY/S |
Departure
| Time | 2026-04-29 13:01 |
|---|---|
| Airport | Poznań-Ławica Airport (EPPO) |
Arrival
| Time | 2026-04-29 19:20 |
|---|---|
| Airport | Tromsø Airport (ENTC) |
| Time | Latitude | Longitude | Altitude | Speed | Heading |
|---|---|---|---|---|---|
| 2026-04-29 12:19 | 52.42439 | 16.84261 | 285 ft | 0 kts | 201° |
| 2026-04-29 12:46 | 52.42438 | 16.84260 | 284 ft | 1 kts | 203° |
| 2026-04-29 12:47 | 52.42428 | 16.84229 | 284 ft | 4 kts | 254° |
| 2026-04-29 12:47 | 52.42404 | 16.84206 | 284 ft | 4 kts | 182° |
| 2026-04-29 12:47 | 52.42383 | 16.84204 | 284 ft | 5 kts | 183° |
| 2026-04-29 12:47 | 52.42349 | 16.84200 | 284 ft | 5 kts | 183° |
| 2026-04-29 12:48 | 52.42309 | 16.84198 | 284 ft | 6 kts | 183° |
| 2026-04-29 12:48 | 52.42259 | 16.84193 | 284 ft | 8 kts | 184° |
| 2026-04-29 12:48 | 52.42198 | 16.84186 | 284 ft | 9 kts | 184° |
| 2026-04-29 12:48 | 52.42129 | 16.84178 | 284 ft | 10 kts | 183° |
| 2026-04-29 12:49 | 52.42053 | 16.84171 | 284 ft | 11 kts | 183° |
| 2026-04-29 12:49 | 52.41972 | 16.84161 | 284 ft | 12 kts | 185° |
| 2026-04-29 12:49 | 52.41889 | 16.84131 | 285 ft | 12 kts | 198° |
| 2026-04-29 12:49 | 52.41807 | 16.84086 | 285 ft | 13 kts | 200° |
| 2026-04-29 12:50 | 52.41731 | 16.84040 | 284 ft | 10 kts | 201° |
| 2026-04-29 12:50 | 52.41675 | 16.83984 | 284 ft | 10 kts | 249° |
| 2026-04-29 12:50 | 52.41690 | 16.83875 | 284 ft | 11 kts | 288° |
| 2026-04-29 12:50 | 52.41714 | 16.83754 | 284 ft | 12 kts | 287° |
| 2026-04-29 12:51 | 52.41740 | 16.83621 | 284 ft | 13 kts | 288° |
| 2026-04-29 12:51 | 52.41767 | 16.83480 | 284 ft | 13 kts | 287° |
| 2026-04-29 12:51 | 52.41796 | 16.83333 | 284 ft | 14 kts | 287° |
| 2026-04-29 12:51 | 52.41825 | 16.83183 | 284 ft | 14 kts | 288° |
| 2026-04-29 12:52 | 52.41855 | 16.83027 | 284 ft | 14 kts | 287° |
| 2026-04-29 12:52 | 52.41886 | 16.82870 | 284 ft | 15 kts | 287° |
| 2026-04-29 12:52 | 52.41916 | 16.82711 | 284 ft | 15 kts | 288° |
| 2026-04-29 12:52 | 52.41948 | 16.82549 | 284 ft | 15 kts | 289° |
| 2026-04-29 12:53 | 52.41979 | 16.82385 | 284 ft | 15 kts | 288° |
| 2026-04-29 12:53 | 52.42011 | 16.82221 | 284 ft | 15 kts | 287° |
| 2026-04-29 12:53 | 52.42042 | 16.82055 | 284 ft | 15 kts | 287° |
| 2026-04-29 12:53 | 52.42075 | 16.81888 | 284 ft | 15 kts | 288° |
| 2026-04-29 12:54 | 52.42107 | 16.81720 | 284 ft | 16 kts | 287° |
| 2026-04-29 12:54 | 52.42139 | 16.81551 | 284 ft | 16 kts | 288° |
| 2026-04-29 12:54 | 52.42171 | 16.81388 | 284 ft | 14 kts | 288° |
| 2026-04-29 12:54 | 52.42197 | 16.81256 | 284 ft | 9 kts | 288° |
| 2026-04-29 12:55 | 52.42218 | 16.81168 | 284 ft | 6 kts | 309° |
| 2026-04-29 12:55 | 52.42247 | 16.81152 | 284 ft | 5 kts | 14° |
| 2026-04-29 12:55 | 52.42271 | 16.81196 | 284 ft | 6 kts | 72° |
| 2026-04-29 12:55 | 52.42276 | 16.81233 | 284 ft | 0 kts | 78° |
| 2026-04-29 12:56 | 52.42277 | 16.81240 | 284 ft | 3 kts | 78° |
| 2026-04-29 12:56 | 52.42289 | 16.81335 | 284 ft | 13 kts | 78° |
| 2026-04-29 12:56 | 52.42306 | 16.81470 | 285 ft | 13 kts | 78° |
| 2026-04-29 12:57 | 52.42308 | 16.81579 | 285 ft | 1 kts | 107° |
| 2026-04-29 12:57 | 52.42307 | 16.81582 | 285 ft | 0 kts | 107° |
| 2026-04-29 12:59 | 52.42306 | 16.81589 | 285 ft | 0 kts | 108° |
| 2026-04-29 12:59 | 52.42280 | 16.81720 | 284 ft | 35 kts | 107° |
| 2026-04-29 12:59 | 52.42151 | 16.82353 | 286 ft | 80 kts | 108° |
| 2026-04-29 13:00 | 52.41961 | 16.83396 | 334 ft | 103 kts | 109° |
| 2026-04-29 13:00 | 52.41744 | 16.84536 | 560 ft | 110 kts | 111° |
| 2026-04-29 13:00 | 52.41470 | 16.85791 | 786 ft | 122 kts | 114° |
| 2026-04-29 13:00 | 52.41121 | 16.87210 | 874 ft | 150 kts | 115° |
| 2026-04-29 13:01 | 52.40681 | 16.88866 | 1200 ft | 163 kts | 117° |
| 2026-04-29 13:01 | 52.40143 | 16.90606 | 1484 ft | 176 kts | 118° |
| 2026-04-29 13:01 | 52.39682 | 16.92520 | 1843 ft | 183 kts | 109° |
| 2026-04-29 13:01 | 52.39505 | 16.94574 | 2240 ft | 185 kts | 92° |
| 2026-04-29 13:02 | 52.39375 | 16.96666 | 2600 ft | 188 kts | 103° |
| 2026-04-29 13:02 | 52.39007 | 16.98742 | 2973 ft | 188 kts | 109° |
| 2026-04-29 13:02 | 52.38720 | 17.00818 | 3346 ft | 188 kts | 88° |
| 2026-04-29 13:02 | 52.39224 | 17.02738 | 3731 ft | 188 kts | 45° |
| 2026-04-29 13:03 | 52.40385 | 17.03616 | 4118 ft | 186 kts | 4° |
| 2026-04-29 13:03 | 52.41652 | 17.03600 | 4739 ft | 184 kts | 359° |
| 2026-04-29 13:03 | 52.42922 | 17.03517 | 5146 ft | 181 kts | 0° |
| 2026-04-29 13:03 | 52.44183 | 17.03470 | 5542 ft | 182 kts | 1° |
| 2026-04-29 13:04 | 52.45452 | 17.03432 | 5934 ft | 182 kts | 0° |
| 2026-04-29 13:04 | 52.46720 | 17.03390 | 6339 ft | 182 kts | 0° |
| 2026-04-29 13:04 | 52.47987 | 17.03347 | 6746 ft | 182 kts | 0° |
| 2026-04-29 13:04 | 52.49247 | 17.03305 | 7124 ft | 183 kts | 0° |
| 2026-04-29 13:05 | 52.50536 | 17.03261 | 7507 ft | 183 kts | 1° |
| 2026-04-29 13:05 | 52.51796 | 17.03218 | 7884 ft | 182 kts | 1° |
| 2026-04-29 13:05 | 52.53052 | 17.03175 | 8279 ft | 181 kts | 1° |
| 2026-04-29 13:05 | 52.54319 | 17.03132 | 8678 ft | 182 kts | 2° |
| 2026-04-29 13:06 | 52.55579 | 17.03087 | 9077 ft | 181 kts | 1° |
| 2026-04-29 13:06 | 52.56815 | 17.02609 | 9502 ft | 184 kts | 343° |
| 2026-04-29 13:06 | 52.57987 | 17.01845 | 9917 ft | 183 kts | 345° |
| 2026-04-29 13:06 | 52.59167 | 17.01102 | 10329 ft | 183 kts | 345° |
| 2026-04-29 13:07 | 52.60370 | 17.00346 | 10706 ft | 185 kts | 345° |
| 2026-04-29 13:07 | 52.61580 | 16.99581 | 11087 ft | 187 kts | 345° |
| 2026-04-29 13:07 | 52.62794 | 16.98811 | 11468 ft | 188 kts | 345° |
| 2026-04-29 13:07 | 52.64019 | 16.98034 | 11853 ft | 188 kts | 345° |
| 2026-04-29 13:08 | 52.65239 | 16.97251 | 12249 ft | 188 kts | 342° |
| 2026-04-29 13:08 | 52.66425 | 16.96343 | 12640 ft | 188 kts | 342° |
| 2026-04-29 13:08 | 52.67619 | 16.95476 | 13042 ft | 188 kts | 343° |
| 2026-04-29 13:08 | 52.68821 | 16.94598 | 13451 ft | 188 kts | 342° |
| 2026-04-29 13:09 | 52.70004 | 16.93722 | 13854 ft | 188 kts | 342° |
| 2026-04-29 13:09 | 52.71197 | 16.92837 | 14270 ft | 188 kts | 342° |
| 2026-04-29 13:09 | 52.72389 | 16.91951 | 14638 ft | 187 kts | 343° |
| 2026-04-29 13:09 | 52.73572 | 16.91073 | 15011 ft | 187 kts | 343° |
| 2026-04-29 13:10 | 52.74775 | 16.90286 | 15396 ft | 181 kts | 353° |
| 2026-04-29 13:10 | 52.75997 | 16.90246 | 15775 ft | 174 kts | 13° |
| 2026-04-29 13:10 | 52.77155 | 16.90676 | 16162 ft | 172 kts | 15° |
| 2026-04-29 13:10 | 52.78335 | 16.91111 | 16556 ft | 172 kts | 15° |
| 2026-04-29 13:11 | 52.79509 | 16.91544 | 16953 ft | 173 kts | 15° |
| 2026-04-29 13:11 | 52.80675 | 16.91976 | 17352 ft | 173 kts | 15° |
| 2026-04-29 13:11 | 52.81850 | 16.92411 | 17766 ft | 173 kts | 15° |
| 2026-04-29 13:11 | 52.83030 | 16.92849 | 18177 ft | 173 kts | 15° |
| 2026-04-29 13:12 | 52.84206 | 16.93285 | 18597 ft | 173 kts | 15° |
| 2026-04-29 13:12 | 52.85377 | 16.93720 | 18981 ft | 172 kts | 16° |
| 2026-04-29 13:12 | 52.86544 | 16.94153 | 19343 ft | 171 kts | 16° |
| 2026-04-29 13:12 | 52.87703 | 16.94584 | 19704 ft | 170 kts | 16° |
| 2026-04-29 13:13 | 52.88854 | 16.95013 | 19947 ft | 173 kts | 17° |
| 2026-04-29 13:13 | 52.90033 | 16.95453 | 20201 ft | 174 kts | 17° |
| 2026-04-29 13:13 | 52.91218 | 16.95894 | 20435 ft | 176 kts | 17° |
| 2026-04-29 13:13 | 52.92455 | 16.96357 | 20442 ft | 187 kts | 17° |
| 2026-04-29 13:14 | 52.93769 | 16.96849 | 20444 ft | 195 kts | 16° |
| 2026-04-29 13:14 | 52.95090 | 16.97341 | 20449 ft | 201 kts | 16° |
| 2026-04-29 13:14 | 52.96481 | 16.97859 | 20448 ft | 205 kts | 16° |
| 2026-04-29 13:14 | 52.97872 | 16.98378 | 20446 ft | 204 kts | 16° |
| 2026-04-29 13:15 | 52.99233 | 16.98886 | 20446 ft | 197 kts | 17° |
| 2026-04-29 13:15 | 53.00560 | 16.99381 | 20441 ft | 192 kts | 17° |
| 2026-04-29 13:15 | 53.01850 | 16.99865 | 20439 ft | 189 kts | 17° |
| 2026-04-29 13:15 | 53.03120 | 17.00341 | 20437 ft | 186 kts | 17° |
| 2026-04-29 13:16 | 53.04375 | 17.00811 | 20436 ft | 183 kts | 17° |
| 2026-04-29 13:16 | 53.05617 | 17.01276 | 20436 ft | 182 kts | 17° |
| 2026-04-29 13:16 | 53.06851 | 17.01739 | 20435 ft | 180 kts | 17° |
| 2026-04-29 13:16 | 53.08069 | 17.02196 | 20436 ft | 179 kts | 17° |
| 2026-04-29 13:17 | 53.09285 | 17.02652 | 20437 ft | 179 kts | 17° |
| 2026-04-29 13:17 | 53.10489 | 17.03104 | 20443 ft | 178 kts | 17° |
| 2026-04-29 13:17 | 53.11700 | 17.03510 | 20442 ft | 179 kts | 10° |
| 2026-04-29 13:17 | 53.12953 | 17.03455 | 20444 ft | 181 kts | 5° |
| 2026-04-29 13:18 | 53.14214 | 17.03376 | 20444 ft | 180 kts | 5° |
| 2026-04-29 13:18 | 53.15466 | 17.03314 | 20442 ft | 180 kts | 6° |
| 2026-04-29 13:18 | 53.16717 | 17.03250 | 20443 ft | 181 kts | 6° |
| 2026-04-29 13:18 | 53.17975 | 17.03184 | 20439 ft | 181 kts | 5° |
| 2026-04-29 13:19 | 53.19225 | 17.03118 | 20437 ft | 181 kts | 6° |
| 2026-04-29 13:19 | 53.20481 | 17.03051 | 20438 ft | 181 kts | 5° |
| 2026-04-29 13:19 | 53.21741 | 17.02984 | 20446 ft | 181 kts | 6° |
| 2026-04-29 13:19 | 53.22998 | 17.02917 | 20437 ft | 181 kts | 6° |
| 2026-04-29 13:20 | 53.24252 | 17.02851 | 20443 ft | 181 kts | 6° |
| 2026-04-29 13:20 | 53.25508 | 17.02784 | 20444 ft | 181 kts | 6° |
| 2026-04-29 13:20 | 53.26767 | 17.02717 | 20436 ft | 180 kts | 6° |
| 2026-04-29 13:20 | 53.28025 | 17.02650 | 20438 ft | 180 kts | 6° |
| 2026-04-29 13:21 | 53.29276 | 17.02583 | 20436 ft | 180 kts | 6° |
| 2026-04-29 13:21 | 53.30518 | 17.02517 | 20442 ft | 180 kts | 6° |
| 2026-04-29 13:21 | 53.31771 | 17.02450 | 20435 ft | 180 kts | 6° |
| 2026-04-29 13:21 | 53.33023 | 17.02383 | 20444 ft | 180 kts | 6° |
| 2026-04-29 13:22 | 53.34277 | 17.02316 | 20431 ft | 180 kts | 6° |
| 2026-04-29 13:22 | 53.35525 | 17.02249 | 20437 ft | 180 kts | 6° |
| 2026-04-29 13:22 | 53.36775 | 17.02182 | 20432 ft | 180 kts | 6° |
| 2026-04-29 13:22 | 53.38029 | 17.02115 | 20435 ft | 180 kts | 6° |
| 2026-04-29 13:23 | 53.39266 | 17.02049 | 20436 ft | 180 kts | 6° |
| 2026-04-29 13:23 | 53.40516 | 17.01982 | 20441 ft | 180 kts | 6° |
| 2026-04-29 13:23 | 53.41761 | 17.01915 | 20436 ft | 180 kts | 6° |
| 2026-04-29 13:23 | 53.43012 | 17.01848 | 20438 ft | 180 kts | 6° |
| 2026-04-29 13:24 | 53.44265 | 17.01781 | 20433 ft | 180 kts | 6° |
| 2026-04-29 13:24 | 53.45521 | 17.01713 | 20435 ft | 180 kts | 6° |
| 2026-04-29 13:24 | 53.46771 | 17.01646 | 20434 ft | 179 kts | 6° |
| 2026-04-29 13:24 | 53.48001 | 17.01579 | 20439 ft | 179 kts | 6° |
| 2026-04-29 13:25 | 53.49254 | 17.01512 | 20433 ft | 179 kts | 6° |
| 2026-04-29 13:25 | 53.51755 | 17.01377 | 20433 ft | 179 kts | 6° |
| 2026-04-29 13:25 | 53.52996 | 17.01310 | 20442 ft | 179 kts | 6° |
| 2026-04-29 13:26 | 53.54245 | 17.01243 | 20438 ft | 179 kts | 6° |
| 2026-04-29 13:26 | 53.55487 | 17.01176 | 20441 ft | 179 kts | 6° |
| 2026-04-29 13:26 | 53.56733 | 17.01108 | 20436 ft | 179 kts | 6° |
| 2026-04-29 13:26 | 53.57960 | 17.01042 | 20435 ft | 178 kts | 6° |
| 2026-04-29 13:27 | 53.59202 | 17.00975 | 20442 ft | 179 kts | 6° |
| 2026-04-29 13:27 | 53.60440 | 17.00908 | 20440 ft | 178 kts | 6° |
| 2026-04-29 13:27 | 53.61679 | 17.00841 | 20438 ft | 178 kts | 6° |
| 2026-04-29 13:27 | 53.62919 | 17.00773 | 20440 ft | 178 kts | 6° |
| 2026-04-29 13:28 | 53.64157 | 17.00706 | 20438 ft | 178 kts | 6° |
| 2026-04-29 13:28 | 53.65396 | 17.00639 | 20436 ft | 178 kts | 6° |
| 2026-04-29 13:28 | 53.66636 | 17.00572 | 20442 ft | 178 kts | 6° |
| 2026-04-29 13:28 | 53.67856 | 17.00506 | 20442 ft | 178 kts | 6° |
| 2026-04-29 13:29 | 53.69107 | 17.00438 | 20443 ft | 178 kts | 6° |
| 2026-04-29 13:29 | 53.70327 | 17.00371 | 20443 ft | 177 kts | 6° |
| 2026-04-29 13:29 | 53.71539 | 17.00459 | 20443 ft | 174 kts | 11° |
| 2026-04-29 13:29 | 53.72747 | 17.00591 | 20438 ft | 174 kts | 10° |
| 2026-04-29 13:30 | 53.73957 | 17.00719 | 20438 ft | 174 kts | 10° |
| 2026-04-29 13:30 | 53.75171 | 17.00851 | 20436 ft | 174 kts | 11° |
| 2026-04-29 13:30 | 53.76367 | 17.00982 | 20438 ft | 174 kts | 11° |
| 2026-04-29 13:30 | 53.77582 | 17.01116 | 20442 ft | 174 kts | 11° |
| 2026-04-29 13:31 | 53.78795 | 17.01248 | 20442 ft | 175 kts | 11° |
| 2026-04-29 13:31 | 53.80007 | 17.01381 | 20438 ft | 175 kts | 11° |
| 2026-04-29 13:31 | 53.81223 | 17.01514 | 20440 ft | 175 kts | 11° |
| 2026-04-29 13:31 | 53.82448 | 17.01649 | 20437 ft | 175 kts | 11° |
| 2026-04-29 13:32 | 53.83660 | 17.01781 | 20438 ft | 175 kts | 11° |
| 2026-04-29 13:32 | 53.84876 | 17.01915 | 20440 ft | 175 kts | 11° |
| 2026-04-29 13:32 | 53.86086 | 17.02048 | 20437 ft | 175 kts | 11° |
| 2026-04-29 13:32 | 53.86897 | 17.02137 | 20440 ft | 175 kts | 11° |
| 2026-04-29 13:33 | 53.88106 | 17.02270 | 20441 ft | 175 kts | 11° |
| 2026-04-29 13:33 | 53.89714 | 17.02447 | 20442 ft | 175 kts | 11° |
| 2026-04-29 13:33 | 53.90927 | 17.02581 | 20442 ft | 175 kts | 11° |
| 2026-04-29 13:33 | 53.91737 | 17.02670 | 20440 ft | 175 kts | 11° |
| 2026-04-29 13:34 | 53.92959 | 17.02804 | 20440 ft | 174 kts | 11° |
| 2026-04-29 13:34 | 53.94160 | 17.02937 | 20438 ft | 175 kts | 11° |
| 2026-04-29 13:34 | 53.95370 | 17.03070 | 20441 ft | 175 kts | 11° |
| 2026-04-29 13:34 | 53.96587 | 17.03205 | 20439 ft | 175 kts | 11° |
| 2026-04-29 13:35 | 53.97802 | 17.03339 | 20436 ft | 175 kts | 11° |
| 2026-04-29 13:35 | 53.99017 | 17.03473 | 20435 ft | 175 kts | 11° |
| 2026-04-29 13:35 | 54.00237 | 17.03608 | 20438 ft | 175 kts | 11° |
| 2026-04-29 13:35 | 54.01445 | 17.03742 | 20439 ft | 175 kts | 11° |
| 2026-04-29 13:36 | 54.02678 | 17.03879 | 20441 ft | 175 kts | 11° |
| 2026-04-29 13:36 | 54.03880 | 17.04012 | 20440 ft | 175 kts | 11° |
| 2026-04-29 13:36 | 54.05097 | 17.04147 | 20441 ft | 175 kts | 11° |
| 2026-04-29 13:36 | 54.06314 | 17.04282 | 20444 ft | 175 kts | 11° |
| 2026-04-29 13:37 | 54.07536 | 17.04417 | 20441 ft | 176 kts | 11° |
| 2026-04-29 13:37 | 54.08757 | 17.04553 | 20442 ft | 176 kts | 11° |
| 2026-04-29 13:37 | 54.09981 | 17.04689 | 20441 ft | 176 kts | 11° |
| 2026-04-29 13:37 | 54.11205 | 17.04825 | 20444 ft | 176 kts | 11° |
| 2026-04-29 13:38 | 54.12426 | 17.04960 | 20443 ft | 176 kts | 11° |
| 2026-04-29 13:38 | 54.13648 | 17.05096 | 20443 ft | 176 kts | 11° |
| 2026-04-29 13:38 | 54.14866 | 17.05232 | 20443 ft | 175 kts | 11° |
| 2026-04-29 13:38 | 54.16089 | 17.05368 | 20444 ft | 175 kts | 11° |
| 2026-04-29 13:39 | 54.17285 | 17.05501 | 20441 ft | 175 kts | 11° |
| 2026-04-29 13:39 | 54.18503 | 17.05637 | 20443 ft | 175 kts | 11° |
| 2026-04-29 13:39 | 54.19734 | 17.05775 | 20441 ft | 175 kts | 11° |
| 2026-04-29 13:39 | 54.20938 | 17.05909 | 20444 ft | 175 kts | 11° |
| 2026-04-29 13:40 | 54.22155 | 17.06045 | 20447 ft | 175 kts | 11° |
| 2026-04-29 13:40 | 54.23372 | 17.06182 | 20448 ft | 176 kts | 11° |
| 2026-04-29 13:40 | 54.24595 | 17.06318 | 20448 ft | 176 kts | 11° |
| 2026-04-29 13:40 | 54.25815 | 17.06454 | 20448 ft | 175 kts | 11° |
| 2026-04-29 13:41 | 54.27038 | 17.06591 | 20448 ft | 175 kts | 11° |
| 2026-04-29 13:41 | 54.28253 | 17.06728 | 20449 ft | 176 kts | 11° |
| 2026-04-29 13:41 | 54.29474 | 17.06865 | 20446 ft | 176 kts | 11° |
| 2026-04-29 13:41 | 54.30695 | 17.07002 | 20448 ft | 176 kts | 11° |
| 2026-04-29 13:42 | 54.31899 | 17.07137 | 20447 ft | 176 kts | 11° |
| 2026-04-29 13:42 | 54.33120 | 17.07274 | 20446 ft | 176 kts | 11° |
| 2026-04-29 13:42 | 54.34351 | 17.07413 | 20450 ft | 176 kts | 11° |
| 2026-04-29 13:42 | 54.35572 | 17.07550 | 20444 ft | 177 kts | 11° |
| 2026-04-29 13:43 | 54.36799 | 17.07688 | 20451 ft | 177 kts | 11° |
| 2026-04-29 13:43 | 54.38026 | 17.07826 | 20449 ft | 176 kts | 11° |
| 2026-04-29 13:43 | 54.39251 | 17.07964 | 20447 ft | 176 kts | 11° |
| 2026-04-29 13:43 | 54.40463 | 17.08101 | 20447 ft | 176 kts | 11° |
| 2026-04-29 13:44 | 54.41702 | 17.08240 | 20447 ft | 176 kts | 11° |
| 2026-04-29 13:44 | 54.42907 | 17.08377 | 20450 ft | 176 kts | 11° |
| 2026-04-29 13:44 | 54.44141 | 17.08516 | 20450 ft | 176 kts | 11° |
| 2026-04-29 13:44 | 54.45365 | 17.08654 | 20447 ft | 176 kts | 11° |
| 2026-04-29 13:45 | 54.46590 | 17.08793 | 20449 ft | 176 kts | 11° |
| 2026-04-29 13:45 | 54.47798 | 17.08929 | 20450 ft | 176 kts | 11° |
| 2026-04-29 13:45 | 54.49034 | 17.09069 | 20454 ft | 176 kts | 11° |
| 2026-04-29 13:45 | 54.50250 | 17.09207 | 20446 ft | 176 kts | 11° |
| 2026-04-29 13:46 | 54.51477 | 17.09346 | 20451 ft | 176 kts | 11° |
| 2026-04-29 13:46 | 54.52701 | 17.09485 | 20448 ft | 177 kts | 11° |
| 2026-04-29 13:46 | 54.53934 | 17.09625 | 20448 ft | 177 kts | 11° |
| 2026-04-29 13:46 | 54.55151 | 17.09763 | 20453 ft | 177 kts | 11° |
| 2026-04-29 13:47 | 54.56382 | 17.09903 | 20451 ft | 177 kts | 11° |
| 2026-04-29 13:47 | 54.57616 | 17.10043 | 20451 ft | 177 kts | 11° |
| 2026-04-29 13:47 | 54.58846 | 17.10183 | 20452 ft | 177 kts | 11° |
| 2026-04-29 13:47 | 54.60081 | 17.10324 | 20453 ft | 177 kts | 11° |
| 2026-04-29 13:48 | 54.61312 | 17.10464 | 20452 ft | 178 kts | 11° |
| 2026-04-29 13:48 | 54.62550 | 17.10605 | 20448 ft | 178 kts | 11° |
| 2026-04-29 13:48 | 54.63782 | 17.10745 | 20449 ft | 177 kts | 11° |
| 2026-04-29 13:48 | 54.65015 | 17.10886 | 20450 ft | 177 kts | 11° |
| 2026-04-29 13:49 | 54.66250 | 17.11027 | 20450 ft | 177 kts | 11° |
| 2026-04-29 13:49 | 54.67463 | 17.11166 | 20452 ft | 177 kts | 11° |
| 2026-04-29 13:49 | 54.68690 | 17.11306 | 20451 ft | 177 kts | 11° |
| 2026-04-29 13:49 | 54.69926 | 17.11447 | 20450 ft | 177 kts | 11° |
| 2026-04-29 13:50 | 54.71156 | 17.11588 | 20451 ft | 177 kts | 11° |
| 2026-04-29 13:50 | 54.72387 | 17.11729 | 20450 ft | 177 kts | 11° |
| 2026-04-29 13:50 | 54.73622 | 17.11870 | 20451 ft | 177 kts | 11° |
| 2026-04-29 13:50 | 54.74857 | 17.12012 | 20452 ft | 177 kts | 11° |
| 2026-04-29 13:51 | 54.76090 | 17.12154 | 20455 ft | 178 kts | 11° |
| 2026-04-29 13:51 | 54.77328 | 17.12296 | 20452 ft | 178 kts | 11° |
| 2026-04-29 13:51 | 54.78561 | 17.12437 | 20454 ft | 178 kts | 11° |
| 2026-04-29 13:51 | 54.79779 | 17.12577 | 20454 ft | 178 kts | 11° |
| 2026-04-29 13:52 | 54.81015 | 17.12719 | 20458 ft | 177 kts | 11° |
| 2026-04-29 13:52 | 54.82248 | 17.12861 | 20454 ft | 178 kts | 11° |
| 2026-04-29 13:52 | 54.83479 | 17.13003 | 20458 ft | 178 kts | 11° |
| 2026-04-29 13:52 | 54.84718 | 17.13146 | 20452 ft | 178 kts | 11° |
| 2026-04-29 13:53 | 54.85952 | 17.13288 | 20455 ft | 178 kts | 11° |
| 2026-04-29 13:53 | 54.87184 | 17.13430 | 20456 ft | 178 kts | 11° |
| 2026-04-29 13:53 | 54.88398 | 17.13570 | 20451 ft | 178 kts | 11° |
| 2026-04-29 13:53 | 54.89641 | 17.13714 | 20451 ft | 178 kts | 11° |
| 2026-04-29 13:54 | 54.90877 | 17.13857 | 20451 ft | 178 kts | 11° |
| 2026-04-29 13:54 | 54.92112 | 17.13999 | 20450 ft | 178 kts | 11° |
| 2026-04-29 13:54 | 54.93346 | 17.14142 | 20449 ft | 178 kts | 11° |
| 2026-04-29 13:54 | 54.94587 | 17.14286 | 20452 ft | 178 kts | 11° |
| 2026-04-29 13:55 | 54.95819 | 17.14429 | 20450 ft | 178 kts | 11° |
| 2026-04-29 13:55 | 54.97052 | 17.14571 | 20453 ft | 178 kts | 11° |
| 2026-04-29 13:55 | 54.98289 | 17.14715 | 20450 ft | 178 kts | 10° |
| 2026-04-29 13:55 | 54.99509 | 17.14857 | 20452 ft | 178 kts | 11° |
| 2026-04-29 13:56 | 55.00740 | 17.14999 | 20454 ft | 178 kts | 11° |
| 2026-04-29 13:56 | 55.01977 | 17.15143 | 20452 ft | 178 kts | 11° |
| 2026-04-29 13:56 | 55.03210 | 17.15287 | 20453 ft | 178 kts | 11° |
| 2026-04-29 13:56 | 55.04446 | 17.15431 | 20449 ft | 178 kts | 11° |
| 2026-04-29 13:57 | 55.05680 | 17.15574 | 20447 ft | 178 kts | 10° |
| 2026-04-29 13:57 | 55.06915 | 17.15718 | 20449 ft | 178 kts | 10° |
| 2026-04-29 13:57 | 55.08155 | 17.15862 | 20450 ft | 178 kts | 10° |
| 2026-04-29 13:57 | 55.09388 | 17.16006 | 20448 ft | 178 kts | 10° |
| 2026-04-29 13:58 | 55.10626 | 17.16151 | 20451 ft | 178 kts | 10° |
| 2026-04-29 13:58 | 55.11860 | 17.16295 | 20452 ft | 178 kts | 10° |
| 2026-04-29 13:58 | 55.13084 | 17.16438 | 20449 ft | 178 kts | 10° |
| 2026-04-29 13:58 | 55.14321 | 17.16583 | 20447 ft | 178 kts | 10° |
| 2026-04-29 13:59 | 55.15558 | 17.16727 | 20447 ft | 178 kts | 10° |
| 2026-04-29 13:59 | 55.16791 | 17.16872 | 20445 ft | 178 kts | 10° |
| 2026-04-29 13:59 | 55.18027 | 17.17017 | 20450 ft | 178 kts | 10° |
| 2026-04-29 13:59 | 55.19261 | 17.17161 | 20447 ft | 178 kts | 10° |
| 2026-04-29 14:00 | 55.20496 | 17.17306 | 20446 ft | 178 kts | 10° |
| 2026-04-29 14:00 | 55.21720 | 17.17450 | 20446 ft | 178 kts | 10° |
| 2026-04-29 14:00 | 55.22968 | 17.17596 | 20447 ft | 178 kts | 10° |
| 2026-04-29 14:00 | 55.24188 | 17.17740 | 20447 ft | 178 kts | 10° |
| 2026-04-29 14:01 | 55.25425 | 17.17885 | 20446 ft | 178 kts | 10° |
| 2026-04-29 14:01 | 55.26660 | 17.18030 | 20445 ft | 178 kts | 10° |
| 2026-04-29 14:01 | 55.27897 | 17.18176 | 20444 ft | 178 kts | 10° |
| 2026-04-29 14:01 | 55.29132 | 17.18322 | 20445 ft | 178 kts | 10° |
| 2026-04-29 14:02 | 55.30363 | 17.18467 | 20451 ft | 177 kts | 10° |
| 2026-04-29 14:02 | 55.31598 | 17.18612 | 20450 ft | 178 kts | 10° |
| 2026-04-29 14:02 | 55.32833 | 17.18758 | 20450 ft | 178 kts | 10° |
| 2026-04-29 14:02 | 55.34060 | 17.18903 | 20446 ft | 177 kts | 10° |
| 2026-04-29 14:03 | 55.35294 | 17.19049 | 20454 ft | 177 kts | 10° |
| 2026-04-29 14:03 | 55.36503 | 17.19192 | 20452 ft | 177 kts | 10° |
| 2026-04-29 14:03 | 55.37740 | 17.19339 | 20452 ft | 177 kts | 10° |
| 2026-04-29 14:03 | 55.38973 | 17.19485 | 20452 ft | 177 kts | 10° |
| 2026-04-29 14:04 | 55.40203 | 17.19630 | 20457 ft | 177 kts | 10° |
| 2026-04-29 14:04 | 55.41422 | 17.19775 | 20456 ft | 177 kts | 10° |
| 2026-04-29 14:04 | 55.42655 | 17.19921 | 20454 ft | 177 kts | 10° |
| 2026-04-29 14:04 | 55.43887 | 17.20067 | 20452 ft | 177 kts | 10° |
| 2026-04-29 14:05 | 55.45119 | 17.20214 | 20451 ft | 177 kts | 10° |
| 2026-04-29 14:05 | 55.46353 | 17.20360 | 20453 ft | 177 kts | 10° |
| 2026-04-29 14:05 | 55.47588 | 17.20507 | 20453 ft | 177 kts | 10° |
| 2026-04-29 14:05 | 55.48807 | 17.20652 | 20450 ft | 177 kts | 10° |
| 2026-04-29 14:06 | 55.50037 | 17.20799 | 20447 ft | 177 kts | 10° |
| 2026-04-29 14:06 | 55.51271 | 17.20945 | 20449 ft | 177 kts | 10° |
| 2026-04-29 14:06 | 55.52504 | 17.21093 | 20447 ft | 177 kts | 10° |
| 2026-04-29 14:06 | 55.53732 | 17.21239 | 20448 ft | 177 kts | 10° |
| 2026-04-29 14:07 | 55.54964 | 17.21386 | 20447 ft | 177 kts | 10° |
| 2026-04-29 14:07 | 55.56198 | 17.21533 | 20449 ft | 177 kts | 10° |
| 2026-04-29 14:07 | 55.57431 | 17.21681 | 20446 ft | 177 kts | 10° |
| 2026-04-29 14:07 | 55.58644 | 17.21826 | 20448 ft | 177 kts | 10° |
| 2026-04-29 14:08 | 55.59877 | 17.21973 | 20446 ft | 177 kts | 10° |
| 2026-04-29 14:08 | 55.61108 | 17.22121 | 20446 ft | 177 kts | 10° |
| 2026-04-29 14:08 | 55.62335 | 17.22268 | 20447 ft | 177 kts | 10° |
| 2026-04-29 14:08 | 55.63565 | 17.22415 | 20446 ft | 177 kts | 10° |
| 2026-04-29 14:09 | 55.64793 | 17.22563 | 20445 ft | 177 kts | 10° |
| 2026-04-29 14:09 | 55.66017 | 17.22710 | 20446 ft | 177 kts | 10° |
| 2026-04-29 14:09 | 55.67241 | 17.22857 | 20447 ft | 177 kts | 10° |
| 2026-04-29 14:09 | 55.68468 | 17.23004 | 20447 ft | 177 kts | 10° |
| 2026-04-29 14:10 | 55.69690 | 17.23151 | 20448 ft | 177 kts | 10° |
| 2026-04-29 14:10 | 55.70917 | 17.23299 | 20445 ft | 177 kts | 10° |
| 2026-04-29 14:10 | 55.72144 | 17.23446 | 20443 ft | 177 kts | 10° |
| 2026-04-29 14:10 | 55.73369 | 17.23594 | 20446 ft | 177 kts | 10° |
| 2026-04-29 14:11 | 55.74597 | 17.23742 | 20446 ft | 177 kts | 10° |
| 2026-04-29 14:11 | 55.75815 | 17.23889 | 20445 ft | 176 kts | 10° |
| 2026-04-29 14:11 | 55.77035 | 17.24036 | 20446 ft | 176 kts | 10° |
| 2026-04-29 14:11 | 55.78259 | 17.24186 | 20444 ft | 176 kts | 11° |
| 2026-04-29 14:12 | 55.79471 | 17.24443 | 20446 ft | 175 kts | 12° |
| 2026-04-29 14:12 | 55.80677 | 17.24660 | 20445 ft | 175 kts | 11° |
| 2026-04-29 14:12 | 55.81891 | 17.24888 | 20447 ft | 175 kts | 12° |
| 2026-04-29 14:12 | 55.83099 | 17.25124 | 20448 ft | 175 kts | 12° |
| 2026-04-29 14:13 | 55.84308 | 17.25362 | 20447 ft | 175 kts | 12° |
| 2026-04-29 14:13 | 55.85525 | 17.25601 | 20447 ft | 175 kts | 12° |
| 2026-04-29 14:13 | 55.86721 | 17.25835 | 20446 ft | 175 kts | 12° |
| 2026-04-29 14:13 | 55.87945 | 17.26075 | 20447 ft | 175 kts | 12° |
| 2026-04-29 14:14 | 55.89138 | 17.26310 | 20446 ft | 175 kts | 12° |
| 2026-04-29 14:14 | 55.90351 | 17.26548 | 20446 ft | 175 kts | 12° |
| 2026-04-29 14:14 | 55.91559 | 17.26786 | 20448 ft | 175 kts | 12° |
| 2026-04-29 14:14 | 55.92773 | 17.27025 | 20445 ft | 175 kts | 12° |
| 2026-04-29 14:15 | 55.93982 | 17.27263 | 20444 ft | 175 kts | 12° |
| 2026-04-29 14:15 | 55.95199 | 17.27503 | 20447 ft | 175 kts | 12° |
| 2026-04-29 14:15 | 55.96405 | 17.27741 | 20447 ft | 175 kts | 12° |
| 2026-04-29 14:15 | 55.97617 | 17.27980 | 20448 ft | 175 kts | 12° |
| 2026-04-29 14:16 | 55.98823 | 17.28218 | 20449 ft | 175 kts | 12° |
| 2026-04-29 14:16 | 56.00018 | 17.28454 | 20447 ft | 175 kts | 12° |
| 2026-04-29 14:16 | 56.01241 | 17.28696 | 20446 ft | 175 kts | 12° |
| 2026-04-29 14:16 | 56.02449 | 17.28935 | 20446 ft | 175 kts | 12° |
| 2026-04-29 14:17 | 56.03639 | 17.29170 | 20446 ft | 174 kts | 12° |
| 2026-04-29 14:17 | 56.04851 | 17.29411 | 20448 ft | 174 kts | 12° |
| 2026-04-29 14:17 | 56.06055 | 17.29649 | 20446 ft | 174 kts | 12° |
| 2026-04-29 14:17 | 56.07264 | 17.29889 | 20442 ft | 174 kts | 12° |
| 2026-04-29 14:18 | 56.08467 | 17.30127 | 20447 ft | 174 kts | 11° |
| 2026-04-29 14:18 | 56.09674 | 17.30367 | 20444 ft | 174 kts | 11° |
| 2026-04-29 14:18 | 56.10877 | 17.30606 | 20446 ft | 174 kts | 11° |
| 2026-04-29 14:18 | 56.12081 | 17.30845 | 20445 ft | 174 kts | 11° |
| 2026-04-29 14:19 | 56.13275 | 17.31083 | 20443 ft | 174 kts | 11° |
| 2026-04-29 14:19 | 56.14480 | 17.31323 | 20444 ft | 174 kts | 11° |
| 2026-04-29 14:19 | 56.15679 | 17.31562 | 20442 ft | 174 kts | 11° |
| 2026-04-29 14:19 | 56.16887 | 17.31802 | 20443 ft | 174 kts | 11° |
| 2026-04-29 14:20 | 56.18085 | 17.32041 | 20445 ft | 174 kts | 11° |
| 2026-04-29 14:20 | 56.19292 | 17.32282 | 20444 ft | 174 kts | 11° |
| 2026-04-29 14:20 | 56.20494 | 17.32522 | 20444 ft | 174 kts | 11° |
| 2026-04-29 14:20 | 56.21290 | 17.32681 | 20445 ft | 174 kts | 11° |
| 2026-04-29 14:21 | 56.22491 | 17.32921 | 20447 ft | 174 kts | 11° |
| 2026-04-29 14:21 | 56.23692 | 17.33162 | 20448 ft | 174 kts | 11° |
| 2026-04-29 14:21 | 56.24895 | 17.33402 | 20445 ft | 174 kts | 11° |
| 2026-04-29 14:21 | 56.26093 | 17.33642 | 20447 ft | 173 kts | 11° |
| 2026-04-29 14:22 | 56.27684 | 17.33961 | 20443 ft | 173 kts | 11° |
| 2026-04-29 14:22 | 56.28495 | 17.34124 | 20444 ft | 173 kts | 11° |
| 2026-04-29 14:22 | 56.30081 | 17.34442 | 20444 ft | 173 kts | 11° |
| 2026-04-29 14:22 | 56.30891 | 17.34605 | 20446 ft | 173 kts | 11° |
| 2026-04-29 14:23 | 56.32091 | 17.34846 | 20444 ft | 173 kts | 11° |
| 2026-04-29 14:23 | 56.33270 | 17.35083 | 20445 ft | 173 kts | 11° |
| 2026-04-29 14:23 | 56.34468 | 17.35324 | 20444 ft | 173 kts | 11° |
| 2026-04-29 14:23 | 56.35667 | 17.35565 | 20443 ft | 173 kts | 11° |
| 2026-04-29 14:24 | 56.36862 | 17.35806 | 20445 ft | 173 kts | 11° |
| 2026-04-29 14:24 | 56.38061 | 17.36047 | 20445 ft | 173 kts | 11° |
| 2026-04-29 14:24 | 56.39256 | 17.36288 | 20442 ft | 173 kts | 11° |
| 2026-04-29 14:24 | 56.40455 | 17.36530 | 20442 ft | 173 kts | 11° |
| 2026-04-29 14:25 | 56.41656 | 17.36773 | 20441 ft | 173 kts | 11° |
| 2026-04-29 14:25 | 56.42851 | 17.37014 | 20439 ft | 173 kts | 11° |
| 2026-04-29 14:25 | 56.44047 | 17.37256 | 20438 ft | 173 kts | 11° |
| 2026-04-29 14:25 | 56.45244 | 17.37498 | 20444 ft | 173 kts | 11° |
| 2026-04-29 14:26 | 56.46429 | 17.37738 | 20442 ft | 173 kts | 11° |
| 2026-04-29 14:26 | 56.47621 | 17.37979 | 20441 ft | 173 kts | 11° |
| 2026-04-29 14:26 | 56.48818 | 17.38222 | 20444 ft | 173 kts | 11° |
| 2026-04-29 14:26 | 56.50009 | 17.38464 | 20444 ft | 173 kts | 11° |
| 2026-04-29 14:27 | 56.51204 | 17.38706 | 20442 ft | 173 kts | 11° |
| 2026-04-29 14:27 | 56.52406 | 17.38950 | 20442 ft | 173 kts | 11° |
| 2026-04-29 14:27 | 56.53598 | 17.39192 | 20444 ft | 172 kts | 11° |
| 2026-04-29 14:28 | 56.55986 | 17.39678 | 20443 ft | 172 kts | 11° |
| 2026-04-29 14:28 | 56.57168 | 17.39919 | 20441 ft | 172 kts | 11° |
| 2026-04-29 14:28 | 56.58360 | 17.40162 | 20439 ft | 172 kts | 11° |
| 2026-04-29 14:28 | 56.59552 | 17.40405 | 20445 ft | 172 kts | 11° |
| 2026-04-29 14:29 | 56.60701 | 17.40639 | 20443 ft | 172 kts | 11° |
| 2026-04-29 14:29 | 56.61943 | 17.40893 | 20443 ft | 172 kts | 11° |
| 2026-04-29 14:29 | 56.63136 | 17.41136 | 20443 ft | 172 kts | 11° |
| 2026-04-29 14:29 | 56.64331 | 17.41380 | 20438 ft | 172 kts | 10° |
| 2026-04-29 14:30 | 56.65523 | 17.41624 | 20439 ft | 172 kts | 10° |
| 2026-04-29 14:30 | 56.66715 | 17.41868 | 20441 ft | 172 kts | 10° |
| 2026-04-29 14:30 | 56.67892 | 17.42109 | 20438 ft | 172 kts | 10° |
| 2026-04-29 14:30 | 56.69087 | 17.42354 | 20440 ft | 172 kts | 10° |
| 2026-04-29 14:31 | 56.70273 | 17.42597 | 20442 ft | 172 kts | 10° |
| 2026-04-29 14:31 | 56.71463 | 17.42841 | 20442 ft | 172 kts | 10° |
| 2026-04-29 14:31 | 56.72659 | 17.43087 | 20442 ft | 172 kts | 10° |
| 2026-04-29 14:31 | 56.73852 | 17.43332 | 20438 ft | 172 kts | 10° |
| 2026-04-29 14:32 | 56.75043 | 17.43576 | 20439 ft | 172 kts | 10° |
| 2026-04-29 14:32 | 56.76221 | 17.43819 | 20436 ft | 172 kts | 10° |
| 2026-04-29 14:32 | 56.77412 | 17.44064 | 20440 ft | 172 kts | 10° |
| 2026-04-29 14:32 | 56.78607 | 17.44310 | 20441 ft | 172 kts | 10° |
| 2026-04-29 14:33 | 56.79799 | 17.44556 | 20440 ft | 172 kts | 10° |
| 2026-04-29 14:33 | 56.80991 | 17.44801 | 20438 ft | 172 kts | 10° |
| 2026-04-29 14:33 | 56.82179 | 17.45046 | 20440 ft | 172 kts | 10° |
| 2026-04-29 14:33 | 56.83375 | 17.45293 | 20442 ft | 172 kts | 10° |
| 2026-04-29 14:34 | 56.84560 | 17.45538 | 20439 ft | 172 kts | 10° |
| 2026-04-29 14:34 | 56.85753 | 17.45785 | 20438 ft | 172 kts | 10° |
| 2026-04-29 14:34 | 56.86927 | 17.46028 | 20440 ft | 172 kts | 10° |
| 2026-04-29 14:34 | 56.88132 | 17.46277 | 20438 ft | 172 kts | 10° |
| 2026-04-29 14:35 | 56.89302 | 17.46519 | 20434 ft | 172 kts | 10° |
| 2026-04-29 14:35 | 56.90495 | 17.46767 | 20437 ft | 172 kts | 10° |
| 2026-04-29 14:35 | 56.91684 | 17.47013 | 20439 ft | 172 kts | 10° |
| 2026-04-29 14:35 | 56.92873 | 17.47260 | 20435 ft | 172 kts | 10° |
| 2026-04-29 14:36 | 56.94071 | 17.47509 | 20438 ft | 172 kts | 10° |
| 2026-04-29 14:36 | 56.95260 | 17.47756 | 20434 ft | 172 kts | 10° |
| 2026-04-29 14:36 | 56.96449 | 17.48003 | 20434 ft | 172 kts | 10° |
| 2026-04-29 14:36 | 56.97638 | 17.48250 | 20434 ft | 172 kts | 10° |
| 2026-04-29 14:37 | 56.98837 | 17.48500 | 20434 ft | 172 kts | 10° |
| 2026-04-29 14:37 | 57.00028 | 17.48748 | 20432 ft | 172 kts | 10° |
| 2026-04-29 14:37 | 57.01223 | 17.48997 | 20434 ft | 172 kts | 10° |
| 2026-04-29 14:37 | 57.02403 | 17.49243 | 20434 ft | 172 kts | 10° |
| 2026-04-29 14:38 | 57.03596 | 17.49492 | 20437 ft | 172 kts | 10° |
| 2026-04-29 14:38 | 57.04791 | 17.49742 | 20432 ft | 172 kts | 10° |
| 2026-04-29 14:38 | 57.05979 | 17.49990 | 20436 ft | 172 kts | 10° |
| 2026-04-29 14:38 | 57.07172 | 17.50239 | 20433 ft | 172 kts | 10° |
| 2026-04-29 14:39 | 57.08367 | 17.50490 | 20435 ft | 172 kts | 9° |
| 2026-04-29 14:39 | 57.09545 | 17.50736 | 20433 ft | 172 kts | 9° |
| 2026-04-29 14:39 | 57.10746 | 17.50988 | 20435 ft | 172 kts | 9° |
| 2026-04-29 14:39 | 57.11936 | 17.51237 | 20435 ft | 173 kts | 9° |
| 2026-04-29 14:40 | 57.13130 | 17.51488 | 20434 ft | 173 kts | 9° |
| 2026-04-29 14:40 | 57.14312 | 17.51736 | 20433 ft | 173 kts | 9° |
| 2026-04-29 14:40 | 57.15520 | 17.51990 | 20434 ft | 173 kts | 9° |
| 2026-04-29 14:40 | 57.16696 | 17.52237 | 20431 ft | 173 kts | 9° |
| 2026-04-29 14:41 | 57.17894 | 17.52489 | 20435 ft | 173 kts | 9° |
| 2026-04-29 14:41 | 57.19095 | 17.52742 | 20436 ft | 173 kts | 9° |
| 2026-04-29 14:41 | 57.20289 | 17.52993 | 20435 ft | 173 kts | 9° |
| 2026-04-29 14:41 | 57.21468 | 17.53242 | 20434 ft | 173 kts | 9° |
| 2026-04-29 14:42 | 57.22665 | 17.53494 | 20434 ft | 173 kts | 9° |
| 2026-04-29 14:42 | 57.23858 | 17.53746 | 20433 ft | 173 kts | 9° |
| 2026-04-29 14:42 | 57.25055 | 17.53999 | 20430 ft | 173 kts | 9° |
| 2026-04-29 14:42 | 57.26249 | 17.54251 | 20428 ft | 173 kts | 9° |
| 2026-04-29 14:43 | 57.27440 | 17.54503 | 20421 ft | 173 kts | 9° |
| 2026-04-29 14:43 | 57.28634 | 17.54756 | 20437 ft | 173 kts | 9° |
| 2026-04-29 14:43 | 57.29832 | 17.55009 | 20436 ft | 173 kts | 9° |
| 2026-04-29 14:43 | 57.31029 | 17.55263 | 20433 ft | 173 kts | 9° |
| 2026-04-29 14:44 | 57.32223 | 17.55516 | 20435 ft | 173 kts | 9° |
| 2026-04-29 14:44 | 57.33418 | 17.55769 | 20434 ft | 173 kts | 9° |
| 2026-04-29 14:44 | 57.34601 | 17.56020 | 20434 ft | 173 kts | 9° |
| 2026-04-29 14:44 | 57.35794 | 17.56274 | 20433 ft | 173 kts | 9° |
| 2026-04-29 14:45 | 57.36993 | 17.56529 | 20434 ft | 173 kts | 9° |
| 2026-04-29 14:45 | 57.38192 | 17.56784 | 20433 ft | 173 kts | 9° |
| 2026-04-29 14:45 | 57.39389 | 17.57038 | 20429 ft | 173 kts | 9° |
| 2026-04-29 14:45 | 57.40587 | 17.57294 | 20432 ft | 173 kts | 9° |
| 2026-04-29 14:46 | 57.41778 | 17.57548 | 20428 ft | 173 kts | 9° |
| 2026-04-29 14:46 | 57.42978 | 17.57803 | 20425 ft | 173 kts | 9° |
| 2026-04-29 14:46 | 57.44162 | 17.58056 | 20425 ft | 173 kts | 9° |
| 2026-04-29 14:46 | 57.45352 | 17.58310 | 20432 ft | 173 kts | 9° |
| 2026-04-29 14:47 | 57.46552 | 17.58567 | 20430 ft | 173 kts | 9° |
| 2026-04-29 14:47 | 57.47748 | 17.58822 | 20433 ft | 173 kts | 9° |
| 2026-04-29 14:47 | 57.48942 | 17.58966 | 20431 ft | 172 kts | 6° |
| 2026-04-29 14:47 | 57.50136 | 17.59128 | 20428 ft | 172 kts | 7° |
| 2026-04-29 14:48 | 57.51335 | 17.59294 | 20431 ft | 172 kts | 7° |
| 2026-04-29 14:48 | 57.52532 | 17.59448 | 20430 ft | 173 kts | 7° |
| 2026-04-29 14:48 | 57.53730 | 17.59598 | 20426 ft | 173 kts | 7° |
| 2026-04-29 14:48 | 57.54931 | 17.59750 | 20428 ft | 173 kts | 7° |
| 2026-04-29 14:49 | 57.56131 | 17.59901 | 20429 ft | 173 kts | 7° |
| 2026-04-29 14:49 | 57.57327 | 17.60052 | 20429 ft | 173 kts | 7° |
| 2026-04-29 14:49 | 57.58527 | 17.60204 | 20426 ft | 173 kts | 7° |
| 2026-04-29 14:49 | 57.59729 | 17.60356 | 20426 ft | 173 kts | 7° |
| 2026-04-29 14:50 | 57.60932 | 17.60508 | 20424 ft | 173 kts | 7° |
| 2026-04-29 14:50 | 57.62132 | 17.60660 | 20427 ft | 173 kts | 7° |
| 2026-04-29 14:50 | 57.63320 | 17.60810 | 20425 ft | 173 kts | 7° |
| 2026-04-29 14:50 | 57.64540 | 17.60965 | 20425 ft | 173 kts | 6° |
| 2026-04-29 14:51 | 57.65721 | 17.61114 | 20425 ft | 173 kts | 6° |
| 2026-04-29 14:51 | 57.66920 | 17.61267 | 20423 ft | 173 kts | 6° |
| 2026-04-29 14:51 | 57.68117 | 17.61418 | 20422 ft | 173 kts | 6° |
| 2026-04-29 14:51 | 57.69318 | 17.61571 | 20419 ft | 172 kts | 6° |
| 2026-04-29 14:52 | 57.70514 | 17.61723 | 20423 ft | 172 kts | 6° |
| 2026-04-29 14:52 | 57.71711 | 17.61875 | 20421 ft | 172 kts | 6° |
| 2026-04-29 14:52 | 57.72910 | 17.62028 | 20421 ft | 172 kts | 6° |
| 2026-04-29 14:52 | 57.74105 | 17.62180 | 20421 ft | 172 kts | 6° |
| 2026-04-29 14:53 | 57.75300 | 17.62332 | 20423 ft | 172 kts | 6° |
| 2026-04-29 14:53 | 57.76500 | 17.62486 | 20421 ft | 172 kts | 6° |
| 2026-04-29 14:53 | 57.77694 | 17.62638 | 20421 ft | 172 kts | 6° |
| 2026-04-29 14:53 | 57.78895 | 17.62791 | 20418 ft | 172 kts | 6° |
| 2026-04-29 14:54 | 57.80074 | 17.62942 | 20419 ft | 172 kts | 6° |
| 2026-04-29 14:54 | 57.81273 | 17.63095 | 20420 ft | 172 kts | 6° |
| 2026-04-29 14:54 | 57.82465 | 17.63248 | 20422 ft | 172 kts | 6° |
| 2026-04-29 14:54 | 57.83660 | 17.63401 | 20421 ft | 172 kts | 6° |
| 2026-04-29 14:55 | 57.84857 | 17.63554 | 20420 ft | 172 kts | 6° |
| 2026-04-29 14:55 | 57.86050 | 17.63707 | 20420 ft | 172 kts | 6° |
| 2026-04-29 14:55 | 57.87245 | 17.63860 | 20420 ft | 172 kts | 6° |
| 2026-04-29 14:55 | 57.88438 | 17.64014 | 20421 ft | 172 kts | 6° |
| 2026-04-29 14:56 | 57.89630 | 17.64167 | 20419 ft | 172 kts | 6° |
| 2026-04-29 14:56 | 57.90824 | 17.64320 | 20421 ft | 172 kts | 6° |
| 2026-04-29 14:56 | 57.92018 | 17.64474 | 20419 ft | 172 kts | 6° |
| 2026-04-29 14:56 | 57.93208 | 17.64627 | 20418 ft | 172 kts | 6° |
| 2026-04-29 14:57 | 57.94404 | 17.64781 | 20418 ft | 172 kts | 6° |
| 2026-04-29 14:57 | 57.95598 | 17.64935 | 20418 ft | 172 kts | 6° |
| 2026-04-29 14:57 | 57.96790 | 17.65089 | 20415 ft | 172 kts | 6° |
| 2026-04-29 14:57 | 57.97981 | 17.65243 | 20417 ft | 172 kts | 6° |
| 2026-04-29 14:58 | 57.99162 | 17.65395 | 20416 ft | 172 kts | 6° |
| 2026-04-29 14:58 | 58.00355 | 17.65549 | 20416 ft | 172 kts | 6° |
| 2026-04-29 14:58 | 58.01551 | 17.65704 | 20417 ft | 172 kts | 6° |
| 2026-04-29 14:58 | 58.02742 | 17.65858 | 20417 ft | 172 kts | 6° |
| 2026-04-29 14:59 | 58.03923 | 17.66011 | 20415 ft | 172 kts | 6° |
| 2026-04-29 14:59 | 58.05115 | 17.66165 | 20412 ft | 172 kts | 6° |
| 2026-04-29 14:59 | 58.06309 | 17.66320 | 20416 ft | 172 kts | 6° |
| 2026-04-29 14:59 | 58.07504 | 17.66475 | 20414 ft | 172 kts | 6° |
| 2026-04-29 15:00 | 58.08693 | 17.66630 | 20414 ft | 172 kts | 6° |
| 2026-04-29 15:00 | 58.09888 | 17.66785 | 20414 ft | 172 kts | 6° |
| 2026-04-29 15:00 | 58.11077 | 17.66940 | 20414 ft | 172 kts | 6° |
| 2026-04-29 15:00 | 58.12270 | 17.67095 | 20414 ft | 171 kts | 6° |
| 2026-04-29 15:01 | 58.13463 | 17.67250 | 20414 ft | 171 kts | 6° |
| 2026-04-29 15:01 | 58.14644 | 17.67404 | 20415 ft | 171 kts | 6° |
| 2026-04-29 15:01 | 58.15831 | 17.67559 | 20411 ft | 171 kts | 6° |
| 2026-04-29 15:01 | 58.17022 | 17.67714 | 20411 ft | 171 kts | 6° |
| 2026-04-29 15:02 | 58.18216 | 17.67870 | 20409 ft | 171 kts | 6° |
| 2026-04-29 15:02 | 58.19405 | 17.68025 | 20410 ft | 171 kts | 6° |
| 2026-04-29 15:02 | 58.20597 | 17.68181 | 20410 ft | 172 kts | 6° |
| 2026-04-29 15:02 | 58.21784 | 17.68336 | 20407 ft | 171 kts | 6° |
| 2026-04-29 15:03 | 58.22978 | 17.68493 | 20411 ft | 171 kts | 6° |
| 2026-04-29 15:03 | 58.24166 | 17.68649 | 20408 ft | 171 kts | 6° |
| 2026-04-29 15:03 | 58.25352 | 17.68804 | 20407 ft | 171 kts | 6° |
| 2026-04-29 15:03 | 58.26544 | 17.68960 | 20412 ft | 171 kts | 6° |
| 2026-04-29 15:04 | 58.27732 | 17.69116 | 20411 ft | 171 kts | 6° |
| 2026-04-29 15:04 | 58.28905 | 17.69270 | 20411 ft | 171 kts | 6° |
| 2026-04-29 15:04 | 58.30098 | 17.69427 | 20410 ft | 171 kts | 6° |
| 2026-04-29 15:04 | 58.31289 | 17.69584 | 20409 ft | 171 kts | 5° |
| 2026-04-29 15:05 | 58.32473 | 17.69740 | 20408 ft | 171 kts | 5° |
| 2026-04-29 15:05 | 58.33265 | 17.69844 | 20405 ft | 171 kts | 5° |
| 2026-04-29 15:05 | 58.34856 | 17.70053 | 20408 ft | 171 kts | 5° |
| 2026-04-29 15:05 | 58.36045 | 17.70210 | 20407 ft | 171 kts | 5° |
| 2026-04-29 15:06 | 58.37233 | 17.70367 | 20409 ft | 171 kts | 5° |
| 2026-04-29 15:06 | 58.38420 | 17.70524 | 20405 ft | 171 kts | 5° |
| 2026-04-29 15:06 | 58.39595 | 17.70679 | 20400 ft | 171 kts | 5° |
| 2026-04-29 15:06 | 58.40787 | 17.70837 | 20404 ft | 171 kts | 5° |
| 2026-04-29 15:07 | 58.41978 | 17.70994 | 20402 ft | 171 kts | 5° |
| 2026-04-29 15:07 | 58.43170 | 17.71152 | 20402 ft | 171 kts | 5° |
| 2026-04-29 15:07 | 58.44358 | 17.71309 | 20402 ft | 171 kts | 5° |
| 2026-04-29 15:07 | 58.45546 | 17.71467 | 20398 ft | 171 kts | 5° |
| 2026-04-29 15:08 | 58.46726 | 17.71624 | 20399 ft | 171 kts | 5° |
| 2026-04-29 15:08 | 58.47519 | 17.71729 | 20400 ft | 171 kts | 5° |
| 2026-04-29 15:08 | 58.49101 | 17.71939 | 20396 ft | 171 kts | 5° |
| 2026-04-29 15:08 | 58.50289 | 17.72097 | 20393 ft | 171 kts | 5° |
| 2026-04-29 15:09 | 58.51477 | 17.72255 | 20395 ft | 171 kts | 5° |
| 2026-04-29 15:09 | 58.52665 | 17.72413 | 20396 ft | 171 kts | 5° |
| 2026-04-29 15:09 | 58.53856 | 17.72572 | 20393 ft | 171 kts | 5° |
| 2026-04-29 15:09 | 58.55041 | 17.72730 | 20394 ft | 171 kts | 5° |
| 2026-04-29 15:10 | 58.55831 | 17.72835 | 20394 ft | 171 kts | 5° |
| 2026-04-29 15:10 | 58.57020 | 17.72994 | 20392 ft | 171 kts | 5° |
| 2026-04-29 15:10 | 58.58208 | 17.73152 | 20392 ft | 171 kts | 5° |
| 2026-04-29 15:10 | 58.59403 | 17.73312 | 20392 ft | 171 kts | 5° |
| 2026-04-29 15:11 | 58.60590 | 17.73458 | 20388 ft | 171 kts | 4° |
| 2026-04-29 15:11 | 58.61748 | 17.73567 | 20621 ft | 161 kts | 4° |
| 2026-04-29 15:11 | 58.62828 | 17.73673 | 20866 ft | 152 kts | 4° |
| 2026-04-29 15:11 | 58.63866 | 17.73779 | 21116 ft | 145 kts | 4° |
| 2026-04-29 15:12 | 58.64840 | 17.73879 | 21360 ft | 139 kts | 4° |
| 2026-04-29 15:12 | 58.65781 | 17.73976 | 21611 ft | 133 kts | 5° |
| 2026-04-29 15:12 | 58.66684 | 17.74069 | 21868 ft | 127 kts | 5° |
| 2026-04-29 15:12 | 58.67556 | 17.74159 | 22126 ft | 123 kts | 5° |
| 2026-04-29 15:13 | 58.68393 | 17.74245 | 22379 ft | 118 kts | 5° |
| 2026-04-29 15:13 | 58.69242 | 17.74335 | 22393 ft | 128 kts | 5° |
| 2026-04-29 15:13 | 58.70166 | 17.74432 | 22398 ft | 135 kts | 5° |
| 2026-04-29 15:13 | 58.71130 | 17.74533 | 22406 ft | 142 kts | 5° |
| 2026-04-29 15:14 | 58.72134 | 17.74637 | 22403 ft | 147 kts | 5° |
| 2026-04-29 15:14 | 58.73172 | 17.74745 | 22404 ft | 151 kts | 4° |
| 2026-04-29 15:14 | 58.74221 | 17.74854 | 22404 ft | 155 kts | 4° |
| 2026-04-29 15:14 | 58.75291 | 17.74965 | 22400 ft | 157 kts | 4° |
| 2026-04-29 15:15 | 58.76408 | 17.75081 | 22400 ft | 159 kts | 4° |
| 2026-04-29 15:15 | 58.77516 | 17.75196 | 22403 ft | 160 kts | 4° |
| 2026-04-29 15:15 | 58.78628 | 17.75312 | 22403 ft | 161 kts | 4° |
| 2026-04-29 15:15 | 58.79742 | 17.75428 | 22399 ft | 161 kts | 4° |
| 2026-04-29 15:16 | 58.80862 | 17.75544 | 22397 ft | 161 kts | 4° |
| 2026-04-29 15:16 | 58.81979 | 17.75660 | 22397 ft | 162 kts | 4° |
| 2026-04-29 15:16 | 58.83122 | 17.75780 | 22395 ft | 162 kts | 4° |
| 2026-04-29 15:16 | 58.84230 | 17.75895 | 22397 ft | 161 kts | 4° |
| 2026-04-29 15:17 | 58.85367 | 17.76014 | 22394 ft | 162 kts | 4° |
| 2026-04-29 15:17 | 58.86481 | 17.76130 | 22392 ft | 162 kts | 4° |
| 2026-04-29 15:17 | 58.87604 | 17.76247 | 22392 ft | 162 kts | 4° |
| 2026-04-29 15:17 | 58.88734 | 17.76365 | 22392 ft | 162 kts | 4° |
| 2026-04-29 15:18 | 58.89861 | 17.76483 | 22388 ft | 162 kts | 4° |
| 2026-04-29 15:18 | 58.90980 | 17.76600 | 22391 ft | 162 kts | 4° |
| 2026-04-29 15:18 | 58.92110 | 17.76719 | 22389 ft | 161 kts | 4° |
| 2026-04-29 15:18 | 58.93227 | 17.76836 | 22389 ft | 161 kts | 4° |
| 2026-04-29 15:19 | 58.94355 | 17.76954 | 22389 ft | 162 kts | 4° |
| 2026-04-29 15:19 | 58.95471 | 17.77071 | 22386 ft | 162 kts | 4° |
| 2026-04-29 15:19 | 58.96608 | 17.77190 | 22383 ft | 162 kts | 4° |
| 2026-04-29 15:19 | 58.97735 | 17.77309 | 22386 ft | 162 kts | 4° |
| 2026-04-29 15:20 | 58.98862 | 17.77427 | 22384 ft | 162 kts | 4° |
| 2026-04-29 15:20 | 58.99990 | 17.77546 | 22384 ft | 162 kts | 4° |
| 2026-04-29 15:20 | 59.01100 | 17.77663 | 22376 ft | 162 kts | 4° |
| 2026-04-29 15:20 | 59.02225 | 17.77782 | 22380 ft | 162 kts | 4° |
| 2026-04-29 15:21 | 59.03357 | 17.77901 | 22376 ft | 161 kts | 4° |
| 2026-04-29 15:21 | 59.04477 | 17.78019 | 22373 ft | 161 kts | 4° |
| 2026-04-29 15:21 | 59.05597 | 17.78137 | 22372 ft | 161 kts | 4° |
| 2026-04-29 15:21 | 59.06704 | 17.78254 | 22370 ft | 160 kts | 4° |
| 2026-04-29 15:22 | 59.07826 | 17.78373 | 22368 ft | 160 kts | 4° |
| 2026-04-29 15:22 | 59.08922 | 17.78488 | 22366 ft | 159 kts | 4° |
| 2026-04-29 15:22 | 59.10031 | 17.78606 | 22364 ft | 159 kts | 4° |
| 2026-04-29 15:22 | 59.11136 | 17.78723 | 22361 ft | 159 kts | 4° |
| 2026-04-29 15:23 | 59.12243 | 17.78840 | 22357 ft | 158 kts | 4° |
| 2026-04-29 15:23 | 59.13340 | 17.78957 | 22355 ft | 158 kts | 4° |
| 2026-04-29 15:23 | 59.14440 | 17.79073 | 22356 ft | 158 kts | 4° |
| 2026-04-29 15:23 | 59.15534 | 17.79189 | 22356 ft | 157 kts | 4° |
| 2026-04-29 15:24 | 59.16624 | 17.79305 | 22350 ft | 157 kts | 4° |
| 2026-04-29 15:24 | 59.17715 | 17.79421 | 22349 ft | 156 kts | 4° |
| 2026-04-29 15:24 | 59.18789 | 17.79536 | 22350 ft | 156 kts | 4° |
| 2026-04-29 15:24 | 59.19889 | 17.79653 | 22347 ft | 156 kts | 4° |
| 2026-04-29 15:25 | 59.20950 | 17.79766 | 22348 ft | 155 kts | 4° |
| 2026-04-29 15:25 | 59.22022 | 17.79880 | 22348 ft | 155 kts | 4° |
| 2026-04-29 15:25 | 59.23098 | 17.79995 | 22345 ft | 155 kts | 4° |
| 2026-04-29 15:25 | 59.24178 | 17.80110 | 22337 ft | 155 kts | 4° |
| 2026-04-29 15:26 | 59.25270 | 17.80226 | 22342 ft | 156 kts | 4° |
| 2026-04-29 15:26 | 59.26360 | 17.80343 | 22344 ft | 159 kts | 4° |
| 2026-04-29 15:26 | 59.27472 | 17.80461 | 22348 ft | 163 kts | 4° |
| 2026-04-29 15:26 | 59.28618 | 17.80584 | 22351 ft | 166 kts | 4° |
| 2026-04-29 15:27 | 59.29774 | 17.80708 | 22351 ft | 167 kts | 4° |
| 2026-04-29 15:27 | 59.30928 | 17.80832 | 22349 ft | 168 kts | 4° |
| 2026-04-29 15:27 | 59.32099 | 17.80958 | 22350 ft | 168 kts | 4° |
| 2026-04-29 15:27 | 59.33214 | 17.81077 | 22346 ft | 167 kts | 4° |
| 2026-04-29 15:28 | 59.34356 | 17.81200 | 22351 ft | 167 kts | 4° |
| 2026-04-29 15:28 | 59.35141 | 17.81284 | 22346 ft | 167 kts | 4° |
| 2026-04-29 15:28 | 59.36674 | 17.81449 | 22349 ft | 166 kts | 4° |
| 2026-04-29 15:28 | 59.37831 | 17.81573 | 22346 ft | 166 kts | 4° |
| 2026-04-29 15:29 | 59.38985 | 17.81697 | 22346 ft | 166 kts | 4° |
| 2026-04-29 15:29 | 59.41287 | 17.81946 | 22346 ft | 166 kts | 4° |
| 2026-04-29 15:30 | 59.43592 | 17.82194 | 22349 ft | 166 kts | 4° |
| 2026-04-29 15:30 | 59.44739 | 17.82318 | 22345 ft | 166 kts | 4° |
| 2026-04-29 15:30 | 59.45896 | 17.82443 | 22344 ft | 166 kts | 4° |
| 2026-04-29 15:30 | 59.47037 | 17.82567 | 22347 ft | 166 kts | 4° |
| 2026-04-29 15:31 | 59.48193 | 17.82692 | 22347 ft | 166 kts | 4° |
| 2026-04-29 15:31 | 59.49349 | 17.82817 | 22348 ft | 166 kts | 4° |
| 2026-04-29 15:31 | 59.50502 | 17.82942 | 22346 ft | 166 kts | 4° |
| 2026-04-29 15:31 | 59.51650 | 17.83066 | 22348 ft | 166 kts | 4° |
| 2026-04-29 15:32 | 59.52813 | 17.83192 | 22343 ft | 166 kts | 4° |
| 2026-04-29 15:32 | 59.53957 | 17.83317 | 22345 ft | 166 kts | 4° |
| 2026-04-29 15:32 | 59.55111 | 17.83442 | 22346 ft | 166 kts | 4° |
| 2026-04-29 15:32 | 59.56265 | 17.83568 | 22345 ft | 166 kts | 4° |
| 2026-04-29 15:33 | 59.57421 | 17.83693 | 22344 ft | 166 kts | 4° |
| 2026-04-29 15:33 | 59.58578 | 17.83819 | 22346 ft | 166 kts | 4° |
| 2026-04-29 15:33 | 59.59728 | 17.83945 | 22346 ft | 166 kts | 4° |
| 2026-04-29 15:33 | 59.60886 | 17.84071 | 22345 ft | 166 kts | 3° |
| 2026-04-29 15:34 | 59.62042 | 17.84197 | 22346 ft | 166 kts | 3° |
| 2026-04-29 15:34 | 59.63185 | 17.84322 | 22344 ft | 166 kts | 3° |
| 2026-04-29 15:34 | 59.64351 | 17.84449 | 22344 ft | 166 kts | 3° |
| 2026-04-29 15:34 | 59.65509 | 17.84576 | 22344 ft | 166 kts | 3° |
| 2026-04-29 15:35 | 59.66650 | 17.84701 | 22344 ft | 166 kts | 3° |
| 2026-04-29 15:35 | 59.67824 | 17.84829 | 22346 ft | 166 kts | 3° |
| 2026-04-29 15:35 | 59.68961 | 17.84954 | 22345 ft | 166 kts | 3° |
| 2026-04-29 15:35 | 59.70112 | 17.85080 | 22344 ft | 166 kts | 3° |
| 2026-04-29 15:36 | 59.71265 | 17.85206 | 22343 ft | 166 kts | 3° |
| 2026-04-29 15:36 | 59.72416 | 17.85333 | 22344 ft | 166 kts | 3° |
| 2026-04-29 15:36 | 59.73573 | 17.85460 | 22343 ft | 166 kts | 3° |
| 2026-04-29 15:36 | 59.74727 | 17.85587 | 22343 ft | 166 kts | 3° |
| 2026-04-29 15:37 | 59.75876 | 17.85713 | 22346 ft | 166 kts | 3° |
| 2026-04-29 15:37 | 59.77020 | 17.85839 | 22344 ft | 166 kts | 3° |
| 2026-04-29 15:37 | 59.78185 | 17.85968 | 22342 ft | 166 kts | 3° |
| 2026-04-29 15:37 | 59.79329 | 17.86094 | 22342 ft | 166 kts | 3° |
| 2026-04-29 15:38 | 59.80480 | 17.86221 | 22342 ft | 166 kts | 3° |
| 2026-04-29 15:38 | 59.81631 | 17.86348 | 22343 ft | 166 kts | 3° |
| 2026-04-29 15:38 | 59.82781 | 17.86475 | 22343 ft | 166 kts | 3° |
| 2026-04-29 15:38 | 59.83940 | 17.86603 | 22344 ft | 166 kts | 3° |
| 2026-04-29 15:39 | 59.85096 | 17.86731 | 22346 ft | 166 kts | 3° |
| 2026-04-29 15:39 | 59.86246 | 17.86858 | 22342 ft | 167 kts | 3° |
| 2026-04-29 15:39 | 59.87415 | 17.86988 | 22348 ft | 167 kts | 3° |
| 2026-04-29 15:39 | 59.88566 | 17.87115 | 22347 ft | 168 kts | 3° |
| 2026-04-29 15:40 | 59.89745 | 17.87246 | 22343 ft | 167 kts | 3° |
| 2026-04-29 15:40 | 59.90914 | 17.87376 | 22345 ft | 167 kts | 3° |
| 2026-04-29 15:40 | 59.92053 | 17.87502 | 22341 ft | 167 kts | 3° |
| 2026-04-29 15:40 | 59.93218 | 17.87632 | 22344 ft | 167 kts | 3° |
| 2026-04-29 15:41 | 59.94382 | 17.87761 | 22343 ft | 167 kts | 3° |
| 2026-04-29 15:41 | 59.95541 | 17.87890 | 22344 ft | 167 kts | 3° |
| 2026-04-29 15:41 | 59.96699 | 17.88019 | 22346 ft | 167 kts | 3° |
| 2026-04-29 15:41 | 59.97857 | 17.88149 | 22343 ft | 167 kts | 3° |
| 2026-04-29 15:42 | 59.99017 | 17.88278 | 22342 ft | 167 kts | 3° |
| 2026-04-29 15:42 | 60.00173 | 17.88407 | 22345 ft | 166 kts | 3° |
| 2026-04-29 15:42 | 60.01331 | 17.88536 | 22346 ft | 166 kts | 3° |
| 2026-04-29 15:42 | 60.02475 | 17.88664 | 22345 ft | 166 kts | 3° |
| 2026-04-29 15:43 | 60.03631 | 17.88794 | 22346 ft | 166 kts | 3° |
| 2026-04-29 15:43 | 60.04783 | 17.88923 | 22342 ft | 166 kts | 3° |
| 2026-04-29 15:43 | 60.05940 | 17.89052 | 22344 ft | 166 kts | 3° |
| 2026-04-29 15:43 | 60.07096 | 17.89182 | 22345 ft | 166 kts | 3° |
| 2026-04-29 15:44 | 60.08251 | 17.89311 | 22344 ft | 166 kts | 3° |
| 2026-04-29 15:44 | 60.09409 | 17.89441 | 22346 ft | 167 kts | 3° |
| 2026-04-29 15:44 | 60.10567 | 17.89572 | 22350 ft | 168 kts | 3° |
| 2026-04-29 15:44 | 60.11748 | 17.89704 | 22355 ft | 170 kts | 3° |
| 2026-04-29 15:45 | 60.12937 | 17.89838 | 22349 ft | 172 kts | 3° |
| 2026-04-29 15:45 | 60.14130 | 17.89973 | 22347 ft | 171 kts | 3° |
| 2026-04-29 15:45 | 60.15300 | 17.90105 | 22348 ft | 170 kts | 3° |
| 2026-04-29 15:45 | 60.16482 | 17.90238 | 22348 ft | 169 kts | 3° |
| 2026-04-29 15:46 | 60.17657 | 17.90370 | 22346 ft | 169 kts | 3° |
| 2026-04-29 15:46 | 60.18832 | 17.90503 | 22347 ft | 168 kts | 3° |
| 2026-04-29 15:46 | 60.20002 | 17.90635 | 22342 ft | 168 kts | 3° |
| 2026-04-29 15:46 | 60.21165 | 17.90767 | 22344 ft | 168 kts | 3° |
| 2026-04-29 15:47 | 60.22329 | 17.90898 | 22345 ft | 168 kts | 3° |
| 2026-04-29 15:47 | 60.23500 | 17.91031 | 22343 ft | 168 kts | 3° |
| 2026-04-29 15:47 | 60.24634 | 17.91159 | 22345 ft | 167 kts | 3° |
| 2026-04-29 15:47 | 60.25797 | 17.91291 | 22345 ft | 167 kts | 3° |
| 2026-04-29 15:48 | 60.26959 | 17.91423 | 22345 ft | 167 kts | 3° |
| 2026-04-29 15:48 | 60.28122 | 17.91555 | 22344 ft | 167 kts | 3° |
| 2026-04-29 15:48 | 60.29282 | 17.91687 | 22344 ft | 167 kts | 3° |
| 2026-04-29 15:48 | 60.30450 | 17.91820 | 22340 ft | 167 kts | 3° |
| 2026-04-29 15:49 | 60.31609 | 17.91952 | 22344 ft | 167 kts | 3° |
| 2026-04-29 15:49 | 60.32751 | 17.92082 | 22344 ft | 167 kts | 3° |
| 2026-04-29 15:49 | 60.33914 | 17.92214 | 22341 ft | 167 kts | 3° |
| 2026-04-29 15:49 | 60.35089 | 17.92348 | 22343 ft | 167 kts | 3° |
| 2026-04-29 15:50 | 60.36250 | 17.92481 | 22340 ft | 167 kts | 3° |
| 2026-04-29 15:50 | 60.37398 | 17.92612 | 22343 ft | 167 kts | 3° |
| 2026-04-29 15:50 | 60.38563 | 17.92745 | 22343 ft | 167 kts | 3° |
| 2026-04-29 15:50 | 60.39730 | 17.92878 | 22343 ft | 167 kts | 3° |
| 2026-04-29 15:51 | 60.40890 | 17.93011 | 22344 ft | 167 kts | 3° |
| 2026-04-29 15:51 | 60.42056 | 17.93145 | 22341 ft | 167 kts | 3° |
| 2026-04-29 15:51 | 60.43222 | 17.93278 | 22345 ft | 167 kts | 3° |
| 2026-04-29 15:51 | 60.44373 | 17.93410 | 22344 ft | 167 kts | 3° |
| 2026-04-29 15:52 | 60.45531 | 17.93543 | 22344 ft | 167 kts | 3° |
| 2026-04-29 15:52 | 60.46699 | 17.93678 | 22345 ft | 167 kts | 3° |
| 2026-04-29 15:52 | 60.47863 | 17.93811 | 22342 ft | 167 kts | 3° |
| 2026-04-29 15:52 | 60.49030 | 17.93946 | 22344 ft | 168 kts | 3° |
| 2026-04-29 15:53 | 60.50195 | 17.94080 | 22343 ft | 168 kts | 2° |
| 2026-04-29 15:53 | 60.51353 | 17.94213 | 22339 ft | 168 kts | 2° |
| 2026-04-29 15:53 | 60.52523 | 17.94348 | 22340 ft | 168 kts | 2° |
| 2026-04-29 15:53 | 60.53688 | 17.94482 | 22342 ft | 168 kts | 2° |
| 2026-04-29 15:54 | 60.54851 | 17.94617 | 22347 ft | 170 kts | 2° |
| 2026-04-29 15:54 | 60.56033 | 17.94753 | 22345 ft | 171 kts | 2° |
| 2026-04-29 15:54 | 60.57220 | 17.94891 | 22344 ft | 171 kts | 2° |
| 2026-04-29 15:54 | 60.58407 | 17.95028 | 22344 ft | 171 kts | 2° |
| 2026-04-29 15:55 | 60.59600 | 17.95166 | 22342 ft | 171 kts | 2° |
| 2026-04-29 15:55 | 60.60788 | 17.95304 | 22343 ft | 171 kts | 2° |
| 2026-04-29 15:55 | 60.61573 | 17.95395 | 22341 ft | 171 kts | 2° |
| 2026-04-29 15:55 | 60.63143 | 17.95577 | 22341 ft | 170 kts | 2° |
| 2026-04-29 15:56 | 60.64318 | 17.95660 | 22340 ft | 168 kts | 359° |
| 2026-04-29 15:56 | 60.65106 | 17.95652 | 22340 ft | 168 kts | 0° |
| 2026-04-29 15:56 | 60.66275 | 17.95687 | 22342 ft | 168 kts | 0° |
| 2026-04-29 15:56 | 60.67430 | 17.95716 | 22340 ft | 168 kts | 0° |
| 2026-04-29 15:57 | 60.68597 | 17.95737 | 22341 ft | 168 kts | 0° |
| 2026-04-29 15:57 | 60.69770 | 17.95756 | 22341 ft | 168 kts | 0° |
| 2026-04-29 15:57 | 60.70944 | 17.95776 | 22341 ft | 169 kts | 0° |
| 2026-04-29 15:57 | 60.72118 | 17.95796 | 22341 ft | 169 kts | 0° |
| 2026-04-29 15:58 | 60.73291 | 17.95815 | 22338 ft | 168 kts | 0° |
| 2026-04-29 15:58 | 60.74459 | 17.95835 | 22339 ft | 168 kts | 0° |
| 2026-04-29 15:58 | 60.75632 | 17.95855 | 22340 ft | 168 kts | 0° |
| 2026-04-29 15:58 | 60.76804 | 17.95875 | 22340 ft | 169 kts | 0° |
| 2026-04-29 15:59 | 60.77981 | 17.95894 | 22343 ft | 169 kts | 0° |
| 2026-04-29 15:59 | 60.79146 | 17.95914 | 22342 ft | 170 kts | 0° |
| 2026-04-29 15:59 | 60.80328 | 17.95934 | 22340 ft | 170 kts | 0° |
| 2026-04-29 15:59 | 60.81510 | 17.95954 | 22340 ft | 169 kts | 0° |
| 2026-04-29 16:00 | 60.82689 | 17.95974 | 22340 ft | 169 kts | 0° |
| 2026-04-29 16:00 | 60.83868 | 17.95994 | 22338 ft | 169 kts | 0° |
| 2026-04-29 16:00 | 60.85042 | 17.96014 | 22340 ft | 169 kts | 0° |
| 2026-04-29 16:00 | 60.86219 | 17.96034 | 22342 ft | 169 kts | 0° |
| 2026-04-29 16:01 | 60.87396 | 17.96054 | 22339 ft | 169 kts | 0° |
| 2026-04-29 16:01 | 60.88561 | 17.96074 | 22340 ft | 169 kts | 0° |
| 2026-04-29 16:01 | 60.89734 | 17.96094 | 22342 ft | 169 kts | 0° |
| 2026-04-29 16:01 | 60.90912 | 17.96114 | 22337 ft | 169 kts | 0° |
| 2026-04-29 16:02 | 60.92083 | 17.96134 | 22338 ft | 169 kts | 0° |
| 2026-04-29 16:02 | 60.93259 | 17.96154 | 22341 ft | 169 kts | 0° |
| 2026-04-29 16:02 | 60.94431 | 17.96174 | 22341 ft | 169 kts | 0° |
| 2026-04-29 16:02 | 60.95593 | 17.96194 | 22333 ft | 168 kts | 0° |
| 2026-04-29 16:03 | 60.96764 | 17.96214 | 22336 ft | 167 kts | 0° |
| 2026-04-29 16:03 | 60.97927 | 17.96234 | 22335 ft | 167 kts | 360° |
| 2026-04-29 16:03 | 60.99093 | 17.96253 | 22334 ft | 167 kts | 360° |
| 2026-04-29 16:03 | 61.00259 | 17.96273 | 22353 ft | 168 kts | 360° |
| 2026-04-29 16:04 | 61.01425 | 17.96293 | 22340 ft | 168 kts | 360° |
| 2026-04-29 16:04 | 61.02596 | 17.96314 | 22342 ft | 168 kts | 360° |
| 2026-04-29 16:04 | 61.03766 | 17.96334 | 22341 ft | 168 kts | 360° |
| 2026-04-29 16:04 | 61.04940 | 17.96354 | 22356 ft | 168 kts | 360° |
| 2026-04-29 16:05 | 61.06099 | 17.96374 | 22341 ft | 168 kts | 360° |
| 2026-04-29 16:05 | 61.07275 | 17.96394 | 22339 ft | 168 kts | 360° |
| 2026-04-29 16:05 | 61.08444 | 17.96414 | 22336 ft | 168 kts | 360° |
| 2026-04-29 16:05 | 61.09614 | 17.96434 | 22352 ft | 168 kts | 359° |
| 2026-04-29 16:06 | 61.10788 | 17.96455 | 22336 ft | 168 kts | 360° |
| 2026-04-29 16:06 | 61.11951 | 17.96475 | 22340 ft | 168 kts | 360° |
| 2026-04-29 16:06 | 61.13124 | 17.96495 | 22341 ft | 168 kts | 360° |
| 2026-04-29 16:06 | 61.14280 | 17.96515 | 22351 ft | 168 kts | 359° |
| 2026-04-29 16:07 | 61.15452 | 17.96535 | 22341 ft | 168 kts | 360° |
| 2026-04-29 16:07 | 61.16616 | 17.96556 | 22341 ft | 168 kts | 359° |
| 2026-04-29 16:07 | 61.17780 | 17.96576 | 22337 ft | 167 kts | 359° |
| 2026-04-29 16:07 | 61.18947 | 17.96596 | 22351 ft | 167 kts | 359° |
| 2026-04-29 16:08 | 61.20110 | 17.96616 | 22337 ft | 167 kts | 359° |
| 2026-04-29 16:08 | 61.21270 | 17.96636 | 22341 ft | 167 kts | 359° |
| 2026-04-29 16:08 | 61.22432 | 17.96657 | 22335 ft | 167 kts | 359° |
| 2026-04-29 16:08 | 61.23595 | 17.96677 | 22353 ft | 167 kts | 359° |
| 2026-04-29 16:09 | 61.24760 | 17.96697 | 22337 ft | 167 kts | 359° |
| 2026-04-29 16:09 | 61.25919 | 17.96717 | 22341 ft | 167 kts | 359° |
| 2026-04-29 16:09 | 61.27082 | 17.96738 | 22337 ft | 167 kts | 359° |
| 2026-04-29 16:09 | 61.28243 | 17.96758 | 22349 ft | 167 kts | 359° |
| 2026-04-29 16:10 | 61.29407 | 17.96778 | 22331 ft | 167 kts | 359° |
| 2026-04-29 16:10 | 61.30574 | 17.96798 | 22337 ft | 167 kts | 359° |
| 2026-04-29 16:10 | 61.31718 | 17.96818 | 22333 ft | 167 kts | 359° |
| 2026-04-29 16:10 | 61.32878 | 17.96839 | 22349 ft | 166 kts | 359° |
| 2026-04-29 16:11 | 61.34038 | 17.96859 | 22334 ft | 167 kts | 359° |
| 2026-04-29 16:11 | 61.35198 | 17.96879 | 22333 ft | 167 kts | 359° |
| 2026-04-29 16:11 | 61.36361 | 17.96900 | 22334 ft | 167 kts | 359° |
| 2026-04-29 16:11 | 61.37517 | 17.96920 | 22346 ft | 166 kts | 359° |
| 2026-04-29 16:12 | 61.38678 | 17.96940 | 22334 ft | 166 kts | 359° |
| 2026-04-29 16:12 | 61.39445 | 17.96954 | 22333 ft | 166 kts | 359° |
| 2026-04-29 16:12 | 61.40986 | 17.96981 | 22331 ft | 165 kts | 359° |
| 2026-04-29 16:12 | 61.42124 | 17.97001 | 22345 ft | 165 kts | 359° |
| 2026-04-29 16:13 | 61.43277 | 17.97021 | 22331 ft | 165 kts | 359° |
| 2026-04-29 16:13 | 61.44430 | 17.97042 | 22331 ft | 165 kts | 359° |
| 2026-04-29 16:13 | 61.45571 | 17.97062 | 22330 ft | 165 kts | 359° |
| 2026-04-29 16:13 | 61.46718 | 17.97082 | 22343 ft | 165 kts | 359° |
| 2026-04-29 16:14 | 61.47870 | 17.97102 | 22333 ft | 165 kts | 359° |
| 2026-04-29 16:14 | 61.49026 | 17.97123 | 22329 ft | 165 kts | 359° |
| 2026-04-29 16:14 | 61.50174 | 17.97143 | 22331 ft | 165 kts | 359° |
| 2026-04-29 16:14 | 61.51316 | 17.97163 | 22343 ft | 165 kts | 359° |
| 2026-04-29 16:15 | 61.52475 | 17.97184 | 22320 ft | 165 kts | 359° |
| 2026-04-29 16:15 | 61.53605 | 17.97204 | 22321 ft | 164 kts | 359° |
| 2026-04-29 16:15 | 61.54745 | 17.97224 | 22330 ft | 164 kts | 359° |
| 2026-04-29 16:15 | 61.55890 | 17.97244 | 22339 ft | 164 kts | 359° |
| 2026-04-29 16:16 | 61.57021 | 17.97264 | 22333 ft | 164 kts | 359° |
| 2026-04-29 16:16 | 61.58162 | 17.97284 | 22325 ft | 164 kts | 359° |
| 2026-04-29 16:16 | 61.59298 | 17.97305 | 22322 ft | 163 kts | 359° |
| 2026-04-29 16:16 | 61.60430 | 17.97325 | 22336 ft | 163 kts | 359° |
| 2026-04-29 16:17 | 61.61572 | 17.97345 | 22322 ft | 163 kts | 359° |
| 2026-04-29 16:17 | 61.62709 | 17.97365 | 22322 ft | 163 kts | 359° |
| 2026-04-29 16:17 | 61.63846 | 17.97386 | 22320 ft | 163 kts | 359° |
| 2026-04-29 16:17 | 61.64975 | 17.97406 | 22335 ft | 163 kts | 358° |
| 2026-04-29 16:18 | 61.66114 | 17.97426 | 22324 ft | 163 kts | 358° |
| 2026-04-29 16:18 | 61.67245 | 17.97446 | 22324 ft | 163 kts | 359° |
| 2026-04-29 16:18 | 61.68367 | 17.97466 | 22322 ft | 162 kts | 358° |
| 2026-04-29 16:18 | 61.69505 | 17.97487 | 22335 ft | 162 kts | 358° |
| 2026-04-29 16:19 | 61.70639 | 17.97507 | 22322 ft | 163 kts | 358° |
| 2026-04-29 16:19 | 61.71760 | 17.97527 | 22321 ft | 162 kts | 358° |
| 2026-04-29 16:19 | 61.72888 | 17.97547 | 22324 ft | 162 kts | 358° |
| 2026-04-29 16:19 | 61.74018 | 17.97568 | 22332 ft | 162 kts | 358° |
| 2026-04-29 16:20 | 61.75148 | 17.97588 | 22320 ft | 162 kts | 358° |
| 2026-04-29 16:20 | 61.76267 | 17.97608 | 22321 ft | 162 kts | 358° |
| 2026-04-29 16:20 | 61.77392 | 17.97628 | 22320 ft | 162 kts | 358° |
| 2026-04-29 16:20 | 61.78518 | 17.97649 | 22332 ft | 162 kts | 358° |
| 2026-04-29 16:21 | 61.79645 | 17.97669 | 22316 ft | 162 kts | 358° |
| 2026-04-29 16:21 | 61.80775 | 17.97689 | 22318 ft | 162 kts | 358° |
| 2026-04-29 16:21 | 61.81901 | 17.97710 | 22317 ft | 161 kts | 358° |
| 2026-04-29 16:21 | 61.83023 | 17.97730 | 22329 ft | 161 kts | 358° |
| 2026-04-29 16:22 | 61.84134 | 17.97750 | 22317 ft | 161 kts | 358° |
| 2026-04-29 16:22 | 61.85256 | 17.97770 | 22318 ft | 161 kts | 358° |
| 2026-04-29 16:22 | 61.86379 | 17.97791 | 22316 ft | 161 kts | 358° |
| 2026-04-29 16:22 | 61.87501 | 17.97816 | 22323 ft | 161 kts | 358° |
| 2026-04-29 16:23 | 61.88625 | 17.97857 | 22316 ft | 161 kts | 359° |
| 2026-04-29 16:23 | 61.89738 | 17.97898 | 22315 ft | 161 kts | 358° |
| 2026-04-29 16:23 | 61.90859 | 17.97936 | 22312 ft | 161 kts | 358° |
| 2026-04-29 16:23 | 61.91980 | 17.97974 | 22323 ft | 161 kts | 358° |
| 2026-04-29 16:24 | 61.93096 | 17.98012 | 22311 ft | 161 kts | 358° |
| 2026-04-29 16:24 | 61.94219 | 17.98051 | 22310 ft | 161 kts | 358° |
| 2026-04-29 16:24 | 61.95335 | 17.98089 | 22308 ft | 160 kts | 358° |
| 2026-04-29 16:24 | 61.96450 | 17.98127 | 22322 ft | 160 kts | 358° |
| 2026-04-29 16:25 | 61.97568 | 17.98165 | 22308 ft | 160 kts | 358° |
| 2026-04-29 16:25 | 61.98674 | 17.98203 | 22309 ft | 160 kts | 358° |
| 2026-04-29 16:25 | 61.99787 | 17.98241 | 22307 ft | 160 kts | 358° |
| 2026-04-29 16:25 | 62.00898 | 17.98279 | 22312 ft | 160 kts | 358° |
| 2026-04-29 16:26 | 62.02021 | 17.98317 | 22305 ft | 160 kts | 358° |
| 2026-04-29 16:26 | 62.03129 | 17.98355 | 22310 ft | 159 kts | 358° |
| 2026-04-29 16:26 | 62.04239 | 17.98393 | 22309 ft | 159 kts | 358° |
| 2026-04-29 16:26 | 62.05334 | 17.98431 | 22318 ft | 159 kts | 358° |
| 2026-04-29 16:27 | 62.06447 | 17.98469 | 22309 ft | 159 kts | 358° |
| 2026-04-29 16:27 | 62.07552 | 17.98507 | 22304 ft | 159 kts | 358° |
| 2026-04-29 16:27 | 62.08658 | 17.98545 | 22310 ft | 159 kts | 358° |
| 2026-04-29 16:27 | 62.09764 | 17.98583 | 22313 ft | 159 kts | 358° |
| 2026-04-29 16:28 | 62.10884 | 17.98621 | 22302 ft | 159 kts | 358° |
| 2026-04-29 16:28 | 62.11987 | 17.98659 | 22305 ft | 159 kts | 358° |
| 2026-04-29 16:28 | 62.13092 | 17.98698 | 22304 ft | 159 kts | 358° |
| 2026-04-29 16:28 | 62.14195 | 17.98736 | 22313 ft | 159 kts | 358° |
| 2026-04-29 16:29 | 62.15287 | 17.98773 | 22304 ft | 159 kts | 358° |
| 2026-04-29 16:29 | 62.16401 | 17.98812 | 22307 ft | 159 kts | 358° |
| 2026-04-29 16:29 | 62.17495 | 17.98850 | 22307 ft | 159 kts | 358° |
| 2026-04-29 16:29 | 62.18601 | 17.98888 | 22312 ft | 159 kts | 358° |
| 2026-04-29 16:30 | 62.19705 | 17.98926 | 22297 ft | 159 kts | 358° |
| 2026-04-29 16:30 | 62.20813 | 17.98965 | 22297 ft | 158 kts | 358° |
| 2026-04-29 16:30 | 62.21916 | 17.99003 | 22299 ft | 158 kts | 358° |
| 2026-04-29 16:30 | 62.23016 | 17.99041 | 22309 ft | 158 kts | 358° |
| 2026-04-29 16:31 | 62.24120 | 17.99079 | 22302 ft | 158 kts | 358° |
| 2026-04-29 16:31 | 62.25206 | 17.99117 | 22299 ft | 158 kts | 358° |
| 2026-04-29 16:31 | 62.26301 | 17.99155 | 22297 ft | 157 kts | 358° |
| 2026-04-29 16:31 | 62.27400 | 17.99193 | 22311 ft | 158 kts | 358° |
| 2026-04-29 16:32 | 62.28497 | 17.99231 | 22297 ft | 158 kts | 358° |
| 2026-04-29 16:32 | 62.29223 | 17.99257 | 22297 ft | 157 kts | 358° |
| 2026-04-29 16:32 | 62.30693 | 17.99308 | 22300 ft | 157 kts | 358° |
| 2026-04-29 16:32 | 62.31784 | 17.99346 | 22306 ft | 157 kts | 358° |
| 2026-04-29 16:33 | 62.33975 | 17.99423 | 22299 ft | 157 kts | 358° |
| 2026-04-29 16:33 | 62.35069 | 17.99461 | 22299 ft | 157 kts | 358° |
| 2026-04-29 16:33 | 62.36160 | 17.99499 | 22302 ft | 157 kts | 358° |
| 2026-04-29 16:34 | 62.37238 | 17.99537 | 22297 ft | 157 kts | 358° |
| 2026-04-29 16:34 | 62.38340 | 17.99576 | 22297 ft | 156 kts | 358° |
| 2026-04-29 16:34 | 62.39417 | 17.99613 | 22295 ft | 156 kts | 358° |
| 2026-04-29 16:34 | 62.40507 | 17.99652 | 22301 ft | 157 kts | 358° |
| 2026-04-29 16:35 | 62.41594 | 17.99690 | 22296 ft | 156 kts | 358° |
| 2026-04-29 16:35 | 62.42685 | 17.99728 | 22294 ft | 156 kts | 358° |
| 2026-04-29 16:35 | 62.43768 | 17.99766 | 22294 ft | 156 kts | 358° |
| 2026-04-29 16:35 | 62.44855 | 17.99805 | 22298 ft | 156 kts | 358° |
| 2026-04-29 16:36 | 62.45944 | 17.99843 | 22299 ft | 156 kts | 358° |
| 2026-04-29 16:36 | 62.47026 | 17.99881 | 22293 ft | 156 kts | 358° |
| 2026-04-29 16:36 | 62.48114 | 17.99920 | 22291 ft | 156 kts | 358° |
| 2026-04-29 16:36 | 62.49203 | 17.99958 | 22293 ft | 156 kts | 358° |
| 2026-04-29 16:37 | 62.50273 | 17.99996 | 22291 ft | 156 kts | 358° |
| 2026-04-29 16:37 | 62.51363 | 18.00035 | 22289 ft | 156 kts | 358° |
| 2026-04-29 16:37 | 62.52447 | 18.00073 | 22292 ft | 156 kts | 358° |
| 2026-04-29 16:37 | 62.53178 | 18.00099 | 22304 ft | 155 kts | 358° |
| 2026-04-29 16:38 | 62.54614 | 18.00150 | 22291 ft | 156 kts | 358° |
| 2026-04-29 16:38 | 62.55694 | 18.00188 | 22291 ft | 155 kts | 358° |
| 2026-04-29 16:38 | 62.56775 | 18.00226 | 22294 ft | 155 kts | 358° |
| 2026-04-29 16:38 | 62.57856 | 18.00265 | 22296 ft | 155 kts | 358° |
| 2026-04-29 16:39 | 62.58937 | 18.00303 | 22290 ft | 155 kts | 358° |
| 2026-04-29 16:39 | 62.60008 | 18.00341 | 22288 ft | 155 kts | 358° |
| 2026-04-29 16:39 | 62.61089 | 18.00380 | 22293 ft | 155 kts | 358° |
| 2026-04-29 16:39 | 62.62170 | 18.00418 | 22297 ft | 156 kts | 358° |
| 2026-04-29 16:40 | 62.63255 | 18.00457 | 22295 ft | 156 kts | 358° |
| 2026-04-29 16:40 | 62.64342 | 18.00496 | 22293 ft | 156 kts | 358° |
| 2026-04-29 16:40 | 62.65425 | 18.00535 | 22288 ft | 155 kts | 358° |
| 2026-04-29 16:40 | 62.66510 | 18.00573 | 22291 ft | 156 kts | 358° |
| 2026-04-29 16:41 | 62.67595 | 18.00612 | 22286 ft | 155 kts | 358° |
| 2026-04-29 16:41 | 62.68670 | 18.00651 | 22286 ft | 155 kts | 358° |
| 2026-04-29 16:41 | 62.69748 | 18.00689 | 22288 ft | 155 kts | 358° |
| 2026-04-29 16:41 | 62.70829 | 18.00728 | 22290 ft | 155 kts | 358° |
| 2026-04-29 16:42 | 62.71897 | 18.00766 | 22288 ft | 155 kts | 358° |
| 2026-04-29 16:42 | 62.72976 | 18.00805 | 22286 ft | 155 kts | 358° |
| 2026-04-29 16:42 | 62.74051 | 18.00844 | 22281 ft | 154 kts | 358° |
| 2026-04-29 16:42 | 62.74767 | 18.00869 | 22294 ft | 154 kts | 358° |
| 2026-04-29 16:43 | 62.75841 | 18.00908 | 22279 ft | 154 kts | 358° |
| 2026-04-29 16:43 | 62.76929 | 18.00947 | 22282 ft | 154 kts | 358° |
| 2026-04-29 16:43 | 62.77986 | 18.00985 | 22284 ft | 154 kts | 358° |
| 2026-04-29 16:43 | 62.79061 | 18.01024 | 22292 ft | 154 kts | 358° |
| 2026-04-29 16:44 | 62.80134 | 18.01062 | 22282 ft | 154 kts | 358° |
| 2026-04-29 16:44 | 62.81198 | 18.01101 | 22276 ft | 153 kts | 358° |
| 2026-04-29 16:44 | 62.82270 | 18.01140 | 22281 ft | 153 kts | 358° |
| 2026-04-29 16:44 | 62.83331 | 18.01179 | 22290 ft | 154 kts | 358° |
| 2026-04-29 16:45 | 62.84409 | 18.01218 | 22276 ft | 154 kts | 358° |
| 2026-04-29 16:45 | 62.85473 | 18.01256 | 22275 ft | 153 kts | 358° |
| 2026-04-29 16:45 | 62.86535 | 18.01295 | 22275 ft | 152 kts | 358° |
| 2026-04-29 16:45 | 62.87583 | 18.01333 | 22287 ft | 152 kts | 358° |
| 2026-04-29 16:46 | 62.88640 | 18.01372 | 22277 ft | 152 kts | 358° |
| 2026-04-29 16:46 | 62.89701 | 18.01411 | 22279 ft | 153 kts | 358° |
| 2026-04-29 16:46 | 62.90768 | 18.01450 | 22278 ft | 153 kts | 358° |
| 2026-04-29 16:46 | 62.91839 | 18.01488 | 22282 ft | 153 kts | 358° |
| 2026-04-29 16:47 | 62.92905 | 18.01527 | 22271 ft | 154 kts | 358° |
| 2026-04-29 16:47 | 62.93978 | 18.01567 | 22275 ft | 153 kts | 358° |
| 2026-04-29 16:47 | 62.95032 | 18.01605 | 22276 ft | 153 kts | 358° |
| 2026-04-29 16:47 | 62.96100 | 18.01644 | 22284 ft | 154 kts | 358° |
| 2026-04-29 16:48 | 62.97175 | 18.01683 | 22258 ft | 154 kts | 358° |
| 2026-04-29 16:48 | 62.98250 | 18.01723 | 22268 ft | 154 kts | 358° |
| 2026-04-29 16:48 | 62.99315 | 18.01762 | 22267 ft | 153 kts | 358° |
| 2026-04-29 16:48 | 63.00384 | 18.01796 | 22273 ft | 152 kts | 356° |
| 2026-04-29 16:49 | 63.01434 | 18.01622 | 22261 ft | 152 kts | 354° |
| 2026-04-29 16:49 | 63.02482 | 18.01465 | 22272 ft | 152 kts | 354° |
| 2026-04-29 16:49 | 63.03540 | 18.01308 | 22274 ft | 152 kts | 354° |
| 2026-04-29 16:49 | 63.04597 | 18.01147 | 22289 ft | 152 kts | 354° |
| 2026-04-29 16:50 | 63.05654 | 18.00984 | 22274 ft | 152 kts | 354° |
| 2026-04-29 16:50 | 63.06710 | 18.00821 | 22270 ft | 152 kts | 354° |
| 2026-04-29 16:50 | 63.07764 | 18.00658 | 22276 ft | 151 kts | 354° |
| 2026-04-29 16:50 | 63.08817 | 18.00495 | 22284 ft | 151 kts | 354° |
| 2026-04-29 16:51 | 63.09860 | 18.00333 | 22273 ft | 151 kts | 354° |
| 2026-04-29 16:51 | 63.10907 | 18.00170 | 22274 ft | 151 kts | 354° |
| 2026-04-29 16:51 | 63.11948 | 18.00009 | 22274 ft | 150 kts | 354° |
| 2026-04-29 16:51 | 63.12998 | 17.99846 | 22282 ft | 151 kts | 354° |
| 2026-04-29 16:52 | 63.14041 | 17.99684 | 22273 ft | 150 kts | 354° |
| 2026-04-29 16:52 | 63.15080 | 17.99522 | 22268 ft | 149 kts | 354° |
| 2026-04-29 16:52 | 63.16115 | 17.99361 | 22272 ft | 150 kts | 354° |
| 2026-04-29 16:52 | 63.17154 | 17.99200 | 22285 ft | 150 kts | 355° |
| 2026-04-29 16:53 | 63.18189 | 17.99038 | 22272 ft | 150 kts | 354° |
| 2026-04-29 16:53 | 63.19225 | 17.98877 | 22274 ft | 149 kts | 354° |
| 2026-04-29 16:53 | 63.20261 | 17.98715 | 22275 ft | 149 kts | 354° |
| 2026-04-29 16:53 | 63.21299 | 17.98553 | 22290 ft | 149 kts | 354° |
| 2026-04-29 16:54 | 63.22341 | 17.98390 | 22275 ft | 149 kts | 354° |
| 2026-04-29 16:54 | 63.23364 | 17.98229 | 22271 ft | 150 kts | 354° |
| 2026-04-29 16:54 | 63.24413 | 17.98065 | 22271 ft | 149 kts | 354° |
| 2026-04-29 16:54 | 63.25449 | 17.97903 | 22281 ft | 149 kts | 354° |
| 2026-04-29 16:55 | 63.26474 | 17.97741 | 22272 ft | 150 kts | 354° |
| 2026-04-29 16:55 | 63.27511 | 17.97579 | 22272 ft | 149 kts | 354° |
| 2026-04-29 16:55 | 63.28543 | 17.97417 | 22267 ft | 149 kts | 354° |
| 2026-04-29 16:55 | 63.29578 | 17.97254 | 22286 ft | 149 kts | 354° |
| 2026-04-29 16:56 | 63.30613 | 17.97091 | 22266 ft | 149 kts | 354° |
| 2026-04-29 16:56 | 63.31647 | 17.96928 | 22265 ft | 149 kts | 354° |
| 2026-04-29 16:56 | 63.32679 | 17.96766 | 22268 ft | 148 kts | 354° |
| 2026-04-29 16:56 | 63.33699 | 17.96605 | 22282 ft | 148 kts | 354° |
| 2026-04-29 16:57 | 63.34733 | 17.96442 | 22271 ft | 149 kts | 355° |
| 2026-04-29 16:57 | 63.35769 | 17.96278 | 22271 ft | 148 kts | 354° |
| 2026-04-29 16:57 | 63.36797 | 17.96116 | 22273 ft | 149 kts | 354° |
| 2026-04-29 16:57 | 63.37829 | 17.95953 | 22280 ft | 148 kts | 354° |
| 2026-04-29 16:58 | 63.38854 | 17.95790 | 22272 ft | 148 kts | 354° |
| 2026-04-29 16:58 | 63.39882 | 17.95627 | 22273 ft | 148 kts | 354° |
| 2026-04-29 16:58 | 63.40907 | 17.95465 | 22268 ft | 148 kts | 354° |
| 2026-04-29 16:58 | 63.41922 | 17.95304 | 22285 ft | 147 kts | 354° |
| 2026-04-29 16:59 | 63.42945 | 17.95141 | 22266 ft | 148 kts | 354° |
| 2026-04-29 16:59 | 63.43971 | 17.94979 | 22268 ft | 147 kts | 354° |
| 2026-04-29 16:59 | 63.44997 | 17.94815 | 22268 ft | 148 kts | 354° |
| 2026-04-29 16:59 | 63.46017 | 17.94653 | 22286 ft | 148 kts | 354° |
| 2026-04-29 17:00 | 63.47049 | 17.94489 | 22267 ft | 148 kts | 354° |
| 2026-04-29 17:00 | 63.48074 | 17.94326 | 22265 ft | 147 kts | 354° |
| 2026-04-29 17:00 | 63.49090 | 17.94164 | 22263 ft | 146 kts | 354° |
| 2026-04-29 17:00 | 63.50104 | 17.94002 | 22278 ft | 146 kts | 354° |
| 2026-04-29 17:01 | 63.51120 | 17.93840 | 22271 ft | 146 kts | 354° |
| 2026-04-29 17:01 | 63.52131 | 17.93679 | 22267 ft | 146 kts | 354° |
| 2026-04-29 17:01 | 63.53149 | 17.93516 | 22265 ft | 146 kts | 354° |
| 2026-04-29 17:01 | 63.54151 | 17.93356 | 22281 ft | 146 kts | 354° |
| 2026-04-29 17:02 | 63.55170 | 17.93193 | 22262 ft | 146 kts | 354° |
| 2026-04-29 17:02 | 63.56196 | 17.93028 | 22267 ft | 146 kts | 354° |
| 2026-04-29 17:02 | 63.57198 | 17.92868 | 22262 ft | 146 kts | 354° |
| 2026-04-29 17:02 | 63.58208 | 17.92706 | 22272 ft | 145 kts | 354° |
| 2026-04-29 17:03 | 63.59210 | 17.92545 | 22267 ft | 145 kts | 354° |
| 2026-04-29 17:03 | 63.60216 | 17.92382 | 22267 ft | 145 kts | 354° |
| 2026-04-29 17:03 | 63.61220 | 17.92221 | 22266 ft | 145 kts | 354° |
| 2026-04-29 17:03 | 63.62223 | 17.92060 | 22255 ft | 145 kts | 354° |
| 2026-04-29 17:04 | 63.63232 | 17.91897 | 22258 ft | 145 kts | 354° |
| 2026-04-29 17:04 | 63.64244 | 17.91734 | 22258 ft | 146 kts | 354° |
| 2026-04-29 17:04 | 63.65247 | 17.91572 | 22256 ft | 146 kts | 354° |
| 2026-04-29 17:04 | 63.66275 | 17.91407 | 22245 ft | 147 kts | 354° |
| 2026-04-29 17:05 | 63.67278 | 17.91245 | 22249 ft | 146 kts | 354° |
| 2026-04-29 17:05 | 63.68296 | 17.91080 | 22251 ft | 146 kts | 354° |
| 2026-04-29 17:05 | 63.69310 | 17.90916 | 22250 ft | 146 kts | 354° |
| 2026-04-29 17:05 | 63.70323 | 17.90752 | 22233 ft | 146 kts | 354° |
| 2026-04-29 17:06 | 63.71341 | 17.90588 | 22247 ft | 146 kts | 354° |
| 2026-04-29 17:06 | 63.72357 | 17.90423 | 22245 ft | 147 kts | 354° |
| 2026-04-29 17:06 | 63.73377 | 17.90257 | 22244 ft | 147 kts | 354° |
| 2026-04-29 17:06 | 63.74393 | 17.90093 | 22236 ft | 147 kts | 354° |
| 2026-04-29 17:07 | 63.75412 | 17.89927 | 22243 ft | 146 kts | 354° |
| 2026-04-29 17:07 | 63.76428 | 17.89762 | 22245 ft | 147 kts | 355° |
| 2026-04-29 17:07 | 63.77437 | 17.89598 | 22246 ft | 147 kts | 354° |
| 2026-04-29 17:07 | 63.78448 | 17.89435 | 22236 ft | 146 kts | 354° |
| 2026-04-29 17:08 | 63.79463 | 17.89269 | 22246 ft | 147 kts | 354° |
| 2026-04-29 17:08 | 63.80485 | 17.89103 | 22242 ft | 146 kts | 354° |
| 2026-04-29 17:08 | 63.81496 | 17.88938 | 22247 ft | 147 kts | 354° |
| 2026-04-29 17:08 | 63.82521 | 17.88771 | 22232 ft | 148 kts | 354° |
| 2026-04-29 17:09 | 63.83540 | 17.88605 | 22242 ft | 146 kts | 354° |
| 2026-04-29 17:09 | 63.84558 | 17.88439 | 22246 ft | 147 kts | 354° |
| 2026-04-29 17:09 | 63.85585 | 17.88271 | 22247 ft | 148 kts | 354° |
| 2026-04-29 17:09 | 63.86619 | 17.88101 | 22234 ft | 148 kts | 354° |
| 2026-04-29 17:10 | 63.87644 | 17.87934 | 22243 ft | 148 kts | 354° |
| 2026-04-29 17:10 | 63.88668 | 17.87765 | 21623 ft | 149 kts | 352° |
| 2026-04-29 17:10 | 63.89710 | 17.87593 | 21758 ft | 150 kts | 352° |
| 2026-04-29 17:10 | 63.90745 | 17.87422 | 21888 ft | 150 kts | 352° |
| 2026-04-29 17:11 | 63.91797 | 17.87249 | 22024 ft | 151 kts | 352° |
| 2026-04-29 17:11 | 63.92850 | 17.87076 | 22161 ft | 152 kts | 352° |
| 2026-04-29 17:11 | 63.93906 | 17.86903 | 22250 ft | 154 kts | 352° |
| 2026-04-29 17:11 | 63.95001 | 17.86721 | 22244 ft | 160 kts | 352° |
| 2026-04-29 17:12 | 63.96125 | 17.86536 | 22255 ft | 164 kts | 352° |
| 2026-04-29 17:12 | 63.97276 | 17.86347 | 22251 ft | 168 kts | 352° |
| 2026-04-29 17:12 | 63.98434 | 17.86157 | 22258 ft | 170 kts | 352° |
| 2026-04-29 17:12 | 63.99232 | 17.86026 | 22255 ft | 171 kts | 352° |
| 2026-04-29 17:13 | 64.00802 | 17.85767 | 22256 ft | 172 kts | 352° |
| 2026-04-29 17:13 | 64.02005 | 17.85568 | 22255 ft | 173 kts | 352° |
| 2026-04-29 17:13 | 64.03208 | 17.85369 | 22254 ft | 173 kts | 352° |
| 2026-04-29 17:13 | 64.04411 | 17.85170 | 22252 ft | 174 kts | 352° |
| 2026-04-29 17:14 | 64.05620 | 17.84969 | 22254 ft | 174 kts | 352° |
| 2026-04-29 17:14 | 64.06815 | 17.84771 | 22252 ft | 174 kts | 352° |
| 2026-04-29 17:14 | 64.08023 | 17.84570 | 22251 ft | 174 kts | 352° |
| 2026-04-29 17:14 | 64.09234 | 17.84369 | 22259 ft | 175 kts | 352° |
| 2026-04-29 17:15 | 64.10448 | 17.84167 | 22247 ft | 174 kts | 352° |
| 2026-04-29 17:15 | 64.11659 | 17.83965 | 22251 ft | 175 kts | 352° |
| 2026-04-29 17:15 | 64.12871 | 17.83763 | 22251 ft | 175 kts | 352° |
| 2026-04-29 17:15 | 64.14088 | 17.83560 | 22253 ft | 175 kts | 352° |
| 2026-04-29 17:16 | 64.15302 | 17.83357 | 22250 ft | 175 kts | 352° |
| 2026-04-29 17:16 | 64.16507 | 17.83156 | 22249 ft | 175 kts | 352° |
| 2026-04-29 17:16 | 64.17723 | 17.82952 | 22250 ft | 175 kts | 352° |
| 2026-04-29 17:16 | 64.18938 | 17.82749 | 22251 ft | 175 kts | 352° |
| 2026-04-29 17:17 | 64.20152 | 17.82545 | 22248 ft | 175 kts | 352° |
| 2026-04-29 17:17 | 64.21370 | 17.82340 | 22251 ft | 175 kts | 352° |
| 2026-04-29 17:17 | 64.22587 | 17.82136 | 22247 ft | 176 kts | 352° |
| 2026-04-29 17:17 | 64.23801 | 17.81932 | 22251 ft | 175 kts | 352° |
| 2026-04-29 17:18 | 64.25010 | 17.81729 | 22250 ft | 175 kts | 352° |
| 2026-04-29 17:18 | 64.26241 | 17.81521 | 22247 ft | 175 kts | 352° |
| 2026-04-29 17:18 | 64.27443 | 17.81319 | 22246 ft | 176 kts | 352° |
| 2026-04-29 17:18 | 64.28661 | 17.81114 | 22251 ft | 175 kts | 352° |
| 2026-04-29 17:19 | 64.29881 | 17.80908 | 22248 ft | 175 kts | 352° |
| 2026-04-29 17:19 | 64.31105 | 17.80701 | 22248 ft | 175 kts | 352° |
| 2026-04-29 17:19 | 64.32316 | 17.80496 | 22248 ft | 176 kts | 352° |
| 2026-04-29 17:19 | 64.33538 | 17.80289 | 22242 ft | 176 kts | 352° |
| 2026-04-29 17:20 | 64.34746 | 17.80085 | 22240 ft | 176 kts | 352° |
| 2026-04-29 17:20 | 64.35964 | 17.79878 | 22244 ft | 175 kts | 352° |
| 2026-04-29 17:20 | 64.37191 | 17.79669 | 22238 ft | 176 kts | 352° |
| 2026-04-29 17:20 | 64.38419 | 17.79461 | 22239 ft | 176 kts | 352° |
| 2026-04-29 17:21 | 64.39641 | 17.79253 | 22240 ft | 176 kts | 352° |
| 2026-04-29 17:21 | 64.40863 | 17.79045 | 22239 ft | 176 kts | 352° |
| 2026-04-29 17:21 | 64.42084 | 17.78837 | 22239 ft | 176 kts | 352° |
| 2026-04-29 17:21 | 64.43303 | 17.78629 | 22236 ft | 176 kts | 352° |
| 2026-04-29 17:22 | 64.44527 | 17.78420 | 22238 ft | 176 kts | 352° |
| 2026-04-29 17:22 | 64.45750 | 17.78211 | 22237 ft | 176 kts | 352° |
| 2026-04-29 17:22 | 64.46958 | 17.78005 | 22240 ft | 176 kts | 352° |
| 2026-04-29 17:22 | 64.48177 | 17.77796 | 22232 ft | 176 kts | 352° |
| 2026-04-29 17:23 | 64.49401 | 17.77587 | 22234 ft | 176 kts | 352° |
| 2026-04-29 17:23 | 64.50627 | 17.77376 | 22233 ft | 176 kts | 351° |
| 2026-04-29 17:23 | 64.51846 | 17.77167 | 22235 ft | 176 kts | 351° |
| 2026-04-29 17:23 | 64.53079 | 17.76956 | 22232 ft | 176 kts | 352° |
| 2026-04-29 17:24 | 64.54300 | 17.76746 | 22233 ft | 176 kts | 351° |
| 2026-04-29 17:24 | 64.55516 | 17.76618 | 22233 ft | 176 kts | 354° |
| 2026-04-29 17:24 | 64.56737 | 17.76534 | 22236 ft | 176 kts | 353° |
| 2026-04-29 17:24 | 64.57960 | 17.76424 | 22233 ft | 177 kts | 353° |
| 2026-04-29 17:25 | 64.59189 | 17.76335 | 22226 ft | 177 kts | 353° |
| 2026-04-29 17:25 | 64.60418 | 17.76252 | 22231 ft | 177 kts | 353° |
| 2026-04-29 17:25 | 64.61655 | 17.76167 | 22228 ft | 177 kts | 353° |
| 2026-04-29 17:25 | 64.62888 | 17.76082 | 22224 ft | 178 kts | 353° |
| 2026-04-29 17:26 | 64.64123 | 17.75997 | 22227 ft | 178 kts | 353° |
| 2026-04-29 17:26 | 64.65356 | 17.75911 | 22225 ft | 177 kts | 353° |
| 2026-04-29 17:26 | 64.66595 | 17.75826 | 22222 ft | 177 kts | 353° |
| 2026-04-29 17:26 | 64.67416 | 17.75769 | 22228 ft | 178 kts | 353° |
| 2026-04-29 17:27 | 64.69067 | 17.75654 | 22227 ft | 178 kts | 353° |
| 2026-04-29 17:27 | 64.70292 | 17.75569 | 22223 ft | 178 kts | 353° |
| 2026-04-29 17:27 | 64.71527 | 17.75483 | 22224 ft | 178 kts | 353° |
| 2026-04-29 17:27 | 64.72764 | 17.75397 | 22216 ft | 177 kts | 353° |
| 2026-04-29 17:28 | 64.73582 | 17.75340 | 22221 ft | 177 kts | 353° |
| 2026-04-29 17:28 | 64.75235 | 17.75224 | 22222 ft | 178 kts | 353° |
| 2026-04-29 17:28 | 64.76467 | 17.75139 | 22226 ft | 178 kts | 353° |
| 2026-04-29 17:28 | 64.77288 | 17.75082 | 22220 ft | 178 kts | 353° |
| 2026-04-29 17:29 | 64.78528 | 17.74995 | 22221 ft | 178 kts | 353° |
| 2026-04-29 17:29 | 64.80175 | 17.74879 | 22225 ft | 178 kts | 353° |
| 2026-04-29 17:29 | 64.81008 | 17.74821 | 22221 ft | 178 kts | 353° |
| 2026-04-29 17:29 | 64.82250 | 17.74734 | 22221 ft | 178 kts | 353° |
| 2026-04-29 17:30 | 64.83484 | 17.74648 | 22219 ft | 178 kts | 353° |
| 2026-04-29 17:30 | 64.84731 | 17.74560 | 22222 ft | 179 kts | 353° |
| 2026-04-29 17:30 | 64.85969 | 17.74473 | 22215 ft | 179 kts | 353° |
| 2026-04-29 17:30 | 64.87216 | 17.74385 | 22219 ft | 178 kts | 353° |
| 2026-04-29 17:31 | 64.88445 | 17.74299 | 22213 ft | 178 kts | 353° |
| 2026-04-29 17:31 | 64.89691 | 17.74211 | 22213 ft | 179 kts | 353° |
| 2026-04-29 17:31 | 64.90937 | 17.74123 | 22209 ft | 179 kts | 353° |
| 2026-04-29 17:31 | 64.92177 | 17.74036 | 22216 ft | 179 kts | 353° |
| 2026-04-29 17:32 | 64.93427 | 17.73947 | 22217 ft | 179 kts | 353° |
| 2026-04-29 17:32 | 64.94670 | 17.73859 | 22215 ft | 179 kts | 353° |
| 2026-04-29 17:32 | 64.95917 | 17.73771 | 22217 ft | 179 kts | 353° |
| 2026-04-29 17:32 | 64.97157 | 17.73683 | 22214 ft | 179 kts | 353° |
| 2026-04-29 17:33 | 64.98404 | 17.73594 | 22211 ft | 179 kts | 353° |
| 2026-04-29 17:33 | 64.99633 | 17.73507 | 22215 ft | 179 kts | 353° |
| 2026-04-29 17:33 | 65.00892 | 17.73418 | 22210 ft | 179 kts | 353° |
| 2026-04-29 17:33 | 65.02125 | 17.73330 | 22212 ft | 179 kts | 353° |
| 2026-04-29 17:34 | 65.03371 | 17.73241 | 22215 ft | 179 kts | 353° |
| 2026-04-29 17:34 | 65.04616 | 17.73153 | 22214 ft | 179 kts | 353° |
| 2026-04-29 17:34 | 65.05860 | 17.73064 | 22207 ft | 179 kts | 353° |
| 2026-04-29 17:34 | 65.07105 | 17.72975 | 22205 ft | 179 kts | 353° |
| 2026-04-29 17:35 | 65.09176 | 17.72827 | 22207 ft | 179 kts | 353° |
| 2026-04-29 17:35 | 65.10823 | 17.72709 | 22208 ft | 179 kts | 353° |
| 2026-04-29 17:35 | 65.12061 | 17.72620 | 22208 ft | 179 kts | 353° |
| 2026-04-29 17:36 | 65.13308 | 17.72531 | 22207 ft | 179 kts | 353° |
| 2026-04-29 17:36 | 65.14554 | 17.72441 | 22208 ft | 179 kts | 353° |
| 2026-04-29 17:36 | 65.15799 | 17.72352 | 22205 ft | 179 kts | 353° |
| 2026-04-29 17:36 | 65.17048 | 17.72262 | 22204 ft | 179 kts | 353° |
| 2026-04-29 17:37 | 65.18290 | 17.72172 | 22201 ft | 179 kts | 352° |
| 2026-04-29 17:37 | 65.19535 | 17.72083 | 22200 ft | 179 kts | 352° |
| 2026-04-29 17:37 | 65.20778 | 17.71993 | 22198 ft | 179 kts | 352° |
| 2026-04-29 17:37 | 65.22028 | 17.71902 | 22197 ft | 179 kts | 352° |
| 2026-04-29 17:38 | 65.23266 | 17.71813 | 22197 ft | 179 kts | 352° |
| 2026-04-29 17:38 | 65.24504 | 17.71724 | 22199 ft | 179 kts | 352° |
| 2026-04-29 17:38 | 65.25748 | 17.71633 | 22200 ft | 179 kts | 352° |
| 2026-04-29 17:38 | 65.26998 | 17.71542 | 22201 ft | 180 kts | 352° |
| 2026-04-29 17:39 | 65.28250 | 17.71452 | 22197 ft | 180 kts | 352° |
| 2026-04-29 17:39 | 65.29500 | 17.71361 | 22195 ft | 180 kts | 352° |
| 2026-04-29 17:39 | 65.30747 | 17.71271 | 22197 ft | 179 kts | 352° |
| 2026-04-29 17:39 | 65.31998 | 17.71180 | 22197 ft | 179 kts | 352° |
| 2026-04-29 17:40 | 65.33247 | 17.71089 | 22196 ft | 179 kts | 352° |
| 2026-04-29 17:40 | 65.34492 | 17.70997 | 22196 ft | 179 kts | 352° |
| 2026-04-29 17:40 | 65.35725 | 17.70908 | 22201 ft | 179 kts | 352° |
| 2026-04-29 17:40 | 65.36982 | 17.70816 | 22191 ft | 179 kts | 352° |
| 2026-04-29 17:41 | 65.38211 | 17.70726 | 22194 ft | 179 kts | 352° |
| 2026-04-29 17:41 | 65.39465 | 17.70634 | 22196 ft | 179 kts | 352° |
| 2026-04-29 17:41 | 65.40708 | 17.70543 | 22196 ft | 179 kts | 352° |
| 2026-04-29 17:41 | 65.41952 | 17.70452 | 22192 ft | 179 kts | 352° |
| 2026-04-29 17:42 | 65.43197 | 17.70360 | 22191 ft | 179 kts | 352° |
| 2026-04-29 17:42 | 65.44449 | 17.70268 | 22192 ft | 179 kts | 352° |
| 2026-04-29 17:42 | 65.45701 | 17.70176 | 22189 ft | 180 kts | 352° |
| 2026-04-29 17:42 | 65.46929 | 17.70086 | 22191 ft | 179 kts | 352° |
| 2026-04-29 17:43 | 65.48201 | 17.69992 | 22191 ft | 179 kts | 352° |
| 2026-04-29 17:43 | 65.49426 | 17.69902 | 22192 ft | 179 kts | 352° |
| 2026-04-29 17:43 | 65.50673 | 17.69810 | 22190 ft | 179 kts | 352° |
| 2026-04-29 17:43 | 65.51930 | 17.69716 | 22184 ft | 180 kts | 352° |
| 2026-04-29 17:44 | 65.53180 | 17.69624 | 22184 ft | 181 kts | 352° |
| 2026-04-29 17:44 | 65.54434 | 17.69532 | 22186 ft | 180 kts | 352° |
| 2026-04-29 17:44 | 65.55692 | 17.69439 | 22187 ft | 180 kts | 352° |
| 2026-04-29 17:44 | 65.56947 | 17.69345 | 22185 ft | 180 kts | 352° |
| 2026-04-29 17:45 | 65.58199 | 17.69252 | 22184 ft | 180 kts | 352° |
| 2026-04-29 17:45 | 65.59462 | 17.69158 | 22183 ft | 181 kts | 352° |
| 2026-04-29 17:45 | 65.60717 | 17.69065 | 22183 ft | 180 kts | 352° |
| 2026-04-29 17:45 | 65.61960 | 17.68972 | 22179 ft | 180 kts | 352° |
| 2026-04-29 17:46 | 65.63206 | 17.68880 | 22179 ft | 180 kts | 352° |
| 2026-04-29 17:46 | 65.64462 | 17.68786 | 22180 ft | 180 kts | 352° |
| 2026-04-29 17:46 | 65.65720 | 17.68692 | 22181 ft | 180 kts | 352° |
| 2026-04-29 17:46 | 65.66978 | 17.68598 | 22178 ft | 181 kts | 352° |
| 2026-04-29 17:47 | 65.68230 | 17.68504 | 22179 ft | 181 kts | 352° |
| 2026-04-29 17:47 | 65.69486 | 17.68410 | 22178 ft | 180 kts | 352° |
| 2026-04-29 17:47 | 65.70730 | 17.68317 | 22180 ft | 181 kts | 352° |
| 2026-04-29 17:47 | 65.71985 | 17.68223 | 22179 ft | 181 kts | 352° |
| 2026-04-29 17:48 | 65.73242 | 17.68128 | 22182 ft | 180 kts | 352° |
| 2026-04-29 17:48 | 65.74503 | 17.68033 | 22182 ft | 180 kts | 352° |
| 2026-04-29 17:48 | 65.75759 | 17.67939 | 22173 ft | 180 kts | 352° |
| 2026-04-29 17:48 | 65.76998 | 17.67846 | 22171 ft | 180 kts | 352° |
| 2026-04-29 17:49 | 65.78249 | 17.67751 | 22172 ft | 180 kts | 352° |
| 2026-04-29 17:49 | 65.79500 | 17.67656 | 22173 ft | 180 kts | 352° |
| 2026-04-29 17:49 | 65.80754 | 17.67562 | 22173 ft | 181 kts | 352° |
| 2026-04-29 17:49 | 65.82021 | 17.67466 | 22173 ft | 181 kts | 352° |
| 2026-04-29 17:50 | 65.83279 | 17.67371 | 22171 ft | 181 kts | 352° |
| 2026-04-29 17:50 | 65.84537 | 17.67275 | 22171 ft | 181 kts | 352° |
| 2026-04-29 17:50 | 65.85783 | 17.67180 | 22168 ft | 181 kts | 352° |
| 2026-04-29 17:50 | 65.87065 | 17.67084 | 22168 ft | 181 kts | 352° |
| 2026-04-29 17:51 | 65.88332 | 17.66988 | 22166 ft | 181 kts | 352° |
| 2026-04-29 17:51 | 65.89576 | 17.66893 | 22170 ft | 181 kts | 352° |
| 2026-04-29 17:51 | 65.90838 | 17.66797 | 22170 ft | 181 kts | 352° |
| 2026-04-29 17:51 | 65.92093 | 17.66701 | 22170 ft | 181 kts | 352° |
| 2026-04-29 17:52 | 65.93346 | 17.66605 | 22168 ft | 181 kts | 352° |
| 2026-04-29 17:52 | 65.94190 | 17.66541 | 22167 ft | 181 kts | 352° |
| 2026-04-29 17:52 | 65.95856 | 17.66414 | 22165 ft | 180 kts | 352° |
| 2026-04-29 17:52 | 65.97129 | 17.66317 | 22164 ft | 180 kts | 352° |
| 2026-04-29 17:53 | 65.98384 | 17.66221 | 22162 ft | 181 kts | 351° |
| 2026-04-29 17:53 | 65.99627 | 17.66125 | 22159 ft | 181 kts | 352° |
| 2026-04-29 17:53 | 66.00885 | 17.66029 | 22161 ft | 181 kts | 352° |
| 2026-04-29 17:53 | 66.02146 | 17.65932 | 22160 ft | 181 kts | 352° |
| 2026-04-29 17:54 | 66.03402 | 17.65835 | 22161 ft | 181 kts | 352° |
| 2026-04-29 17:54 | 66.04665 | 17.65738 | 22161 ft | 181 kts | 351° |
| 2026-04-29 17:54 | 66.05924 | 17.65641 | 22159 ft | 181 kts | 351° |
| 2026-04-29 17:54 | 66.07188 | 17.65543 | 22160 ft | 181 kts | 351° |
| 2026-04-29 17:55 | 66.08454 | 17.65446 | 22156 ft | 181 kts | 351° |
| 2026-04-29 17:55 | 66.09707 | 17.65349 | 22155 ft | 181 kts | 351° |
| 2026-04-29 17:55 | 66.10968 | 17.65252 | 22155 ft | 181 kts | 351° |
| 2026-04-29 17:55 | 66.12225 | 17.65155 | 22156 ft | 180 kts | 351° |
| 2026-04-29 17:56 | 66.13485 | 17.65056 | 22153 ft | 181 kts | 351° |
| 2026-04-29 17:56 | 66.14728 | 17.64959 | 22152 ft | 181 kts | 351° |
| 2026-04-29 17:56 | 66.15991 | 17.64862 | 22150 ft | 181 kts | 351° |
| 2026-04-29 17:56 | 66.17246 | 17.64764 | 22155 ft | 181 kts | 351° |
| 2026-04-29 17:57 | 66.18509 | 17.64666 | 22152 ft | 181 kts | 351° |
| 2026-04-29 17:57 | 66.19772 | 17.64568 | 22153 ft | 181 kts | 351° |
| 2026-04-29 17:57 | 66.21034 | 17.64469 | 22150 ft | 181 kts | 351° |
| 2026-04-29 17:57 | 66.21864 | 17.64405 | 22150 ft | 181 kts | 351° |
| 2026-04-29 17:58 | 66.23529 | 17.64275 | 22151 ft | 180 kts | 351° |
| 2026-04-29 17:58 | 66.24798 | 17.64175 | 22153 ft | 180 kts | 351° |
| 2026-04-29 17:58 | 66.26054 | 17.64076 | 22149 ft | 181 kts | 351° |
| 2026-04-29 17:58 | 66.27291 | 17.63980 | 22144 ft | 180 kts | 351° |
| 2026-04-29 17:59 | 66.28549 | 17.63881 | 22146 ft | 180 kts | 351° |
| 2026-04-29 17:59 | 66.29808 | 17.63782 | 22145 ft | 180 kts | 351° |
| 2026-04-29 17:59 | 66.31062 | 17.63684 | 22148 ft | 180 kts | 351° |
| 2026-04-29 17:59 | 66.32324 | 17.63584 | 22146 ft | 181 kts | 351° |
| 2026-04-29 18:00 | 66.33566 | 17.63486 | 22145 ft | 181 kts | 351° |
| 2026-04-29 18:00 | 66.34837 | 17.63386 | 22147 ft | 180 kts | 351° |
| 2026-04-29 18:00 | 66.36080 | 17.63288 | 22142 ft | 181 kts | 351° |
| 2026-04-29 18:00 | 66.37337 | 17.63189 | 22146 ft | 181 kts | 351° |
| 2026-04-29 18:01 | 66.38601 | 17.63089 | 22145 ft | 181 kts | 351° |
| 2026-04-29 18:01 | 66.39860 | 17.62989 | 22140 ft | 182 kts | 351° |
| 2026-04-29 18:01 | 66.41121 | 17.62889 | 22140 ft | 181 kts | 351° |
| 2026-04-29 18:01 | 66.42381 | 17.62790 | 22139 ft | 181 kts | 351° |
| 2026-04-29 18:02 | 66.43641 | 17.62689 | 22138 ft | 181 kts | 351° |
| 2026-04-29 18:02 | 66.44898 | 17.62589 | 22142 ft | 181 kts | 351° |
| 2026-04-29 18:02 | 66.46154 | 17.62489 | 22138 ft | 181 kts | 351° |
| 2026-04-29 18:02 | 66.47416 | 17.62388 | 22119 ft | 181 kts | 351° |
| 2026-04-29 18:03 | 66.48672 | 17.62289 | 22127 ft | 181 kts | 351° |
| 2026-04-29 18:03 | 66.49928 | 17.62190 | 22128 ft | 180 kts | 351° |
| 2026-04-29 18:03 | 66.51165 | 17.62091 | 22131 ft | 180 kts | 351° |
| 2026-04-29 18:03 | 66.52419 | 17.61990 | 22132 ft | 180 kts | 351° |
| 2026-04-29 18:04 | 66.53675 | 17.61889 | 22129 ft | 181 kts | 351° |
| 2026-04-29 18:04 | 66.54933 | 17.61788 | 22132 ft | 181 kts | 351° |
| 2026-04-29 18:04 | 66.56183 | 17.61688 | 22128 ft | 181 kts | 351° |
| 2026-04-29 18:04 | 66.57445 | 17.61586 | 22128 ft | 181 kts | 351° |
| 2026-04-29 18:05 | 66.58709 | 17.61485 | 22129 ft | 181 kts | 351° |
| 2026-04-29 18:05 | 66.59967 | 17.61384 | 22124 ft | 181 kts | 351° |
| 2026-04-29 18:05 | 66.61225 | 17.61283 | 22127 ft | 181 kts | 351° |
| 2026-04-29 18:05 | 66.62487 | 17.61285 | 22123 ft | 182 kts | 355° |
| 2026-04-29 18:06 | 66.63749 | 17.61539 | 22120 ft | 182 kts | 355° |
| 2026-04-29 18:06 | 66.64993 | 17.61773 | 22122 ft | 182 kts | 355° |
| 2026-04-29 18:06 | 66.66274 | 17.62014 | 22120 ft | 183 kts | 355° |
| 2026-04-29 18:06 | 66.67534 | 17.62255 | 22120 ft | 183 kts | 355° |
| 2026-04-29 18:07 | 66.68803 | 17.62498 | 22120 ft | 184 kts | 355° |
| 2026-04-29 18:07 | 66.70088 | 17.62744 | 22116 ft | 184 kts | 355° |
| 2026-04-29 18:07 | 66.71364 | 17.62990 | 22115 ft | 184 kts | 355° |
| 2026-04-29 18:07 | 66.72638 | 17.63234 | 22116 ft | 184 kts | 355° |
| 2026-04-29 18:08 | 66.73918 | 17.63478 | 22110 ft | 184 kts | 355° |
| 2026-04-29 18:08 | 66.75203 | 17.63725 | 22113 ft | 184 kts | 355° |
| 2026-04-29 18:08 | 66.76466 | 17.63968 | 22106 ft | 184 kts | 355° |
| 2026-04-29 18:08 | 66.77743 | 17.64213 | 22110 ft | 185 kts | 355° |
| 2026-04-29 18:09 | 66.79021 | 17.64460 | 22115 ft | 184 kts | 355° |
| 2026-04-29 18:09 | 66.80299 | 17.64707 | 22103 ft | 184 kts | 355° |
| 2026-04-29 18:09 | 66.81579 | 17.64954 | 22114 ft | 183 kts | 355° |
| 2026-04-29 18:09 | 66.82854 | 17.65200 | 22104 ft | 184 kts | 355° |
| 2026-04-29 18:10 | 66.84119 | 17.65445 | 22101 ft | 184 kts | 355° |
| 2026-04-29 18:10 | 66.85392 | 17.65692 | 22104 ft | 183 kts | 355° |
| 2026-04-29 18:10 | 66.86668 | 17.65939 | 22100 ft | 184 kts | 355° |
| 2026-04-29 18:10 | 66.87952 | 17.66187 | 22096 ft | 184 kts | 355° |
| 2026-04-29 18:11 | 66.89231 | 17.66436 | 22102 ft | 184 kts | 355° |
| 2026-04-29 18:11 | 66.90507 | 17.66684 | 22095 ft | 185 kts | 355° |
| 2026-04-29 18:11 | 66.91778 | 17.66931 | 22099 ft | 185 kts | 355° |
| 2026-04-29 18:11 | 66.93064 | 17.67182 | 22091 ft | 185 kts | 355° |
| 2026-04-29 18:12 | 66.94350 | 17.67433 | 22096 ft | 186 kts | 355° |
| 2026-04-29 18:12 | 66.95643 | 17.67686 | 22086 ft | 185 kts | 355° |
| 2026-04-29 18:12 | 66.96918 | 17.67938 | 22088 ft | 182 kts | 355° |
| 2026-04-29 18:12 | 66.98175 | 17.68183 | 22091 ft | 182 kts | 354° |
| 2026-04-29 18:13 | 66.99442 | 17.68429 | 22087 ft | 182 kts | 354° |
| 2026-04-29 18:13 | 67.00704 | 17.68676 | 22089 ft | 182 kts | 354° |
| 2026-04-29 18:13 | 67.01961 | 17.68923 | 22094 ft | 183 kts | 354° |
| 2026-04-29 18:13 | 67.03232 | 17.69172 | 22084 ft | 184 kts | 354° |
| 2026-04-29 18:14 | 67.04509 | 17.69424 | 22087 ft | 184 kts | 354° |
| 2026-04-29 18:14 | 67.05786 | 17.69676 | 22096 ft | 183 kts | 354° |
| 2026-04-29 18:14 | 67.07063 | 17.69928 | 22090 ft | 184 kts | 354° |
| 2026-04-29 18:14 | 67.08341 | 17.70179 | 22083 ft | 184 kts | 354° |
| 2026-04-29 18:15 | 67.09618 | 17.70432 | 22086 ft | 184 kts | 354° |
| 2026-04-29 18:15 | 67.10881 | 17.70683 | 22081 ft | 183 kts | 354° |
| 2026-04-29 18:15 | 67.11735 | 17.70852 | 22090 ft | 182 kts | 354° |
| 2026-04-29 18:15 | 67.12996 | 17.71102 | 22084 ft | 181 kts | 354° |
| 2026-04-29 18:16 | 67.14666 | 17.71432 | 22093 ft | 182 kts | 354° |
| 2026-04-29 18:16 | 67.15512 | 17.71597 | 22081 ft | 184 kts | 354° |
| 2026-04-29 18:16 | 67.16807 | 17.71855 | 22080 ft | 184 kts | 354° |
| 2026-04-29 18:16 | 67.18080 | 17.72111 | 22078 ft | 183 kts | 354° |
| 2026-04-29 18:17 | 67.19335 | 17.72363 | 22078 ft | 183 kts | 354° |
| 2026-04-29 18:17 | 67.20601 | 17.72614 | 22089 ft | 183 kts | 354° |
| 2026-04-29 18:17 | 67.21879 | 17.72866 | 22078 ft | 185 kts | 354° |
| 2026-04-29 18:17 | 67.23169 | 17.73125 | 22086 ft | 186 kts | 354° |
| 2026-04-29 18:18 | 67.24457 | 17.73383 | 22085 ft | 186 kts | 354° |
| 2026-04-29 18:18 | 67.25753 | 17.73643 | 22089 ft | 186 kts | 354° |
| 2026-04-29 18:18 | 67.27037 | 17.73899 | 22084 ft | 187 kts | 354° |
| 2026-04-29 18:18 | 67.28334 | 17.74161 | 22082 ft | 186 kts | 354° |
| 2026-04-29 18:19 | 67.29627 | 17.74421 | 22095 ft | 187 kts | 354° |
| 2026-04-29 18:19 | 67.30933 | 17.74681 | 22089 ft | 189 kts | 354° |
| 2026-04-29 18:19 | 67.32242 | 17.74947 | 22083 ft | 188 kts | 354° |
| 2026-04-29 18:19 | 67.33546 | 17.75212 | 22089 ft | 187 kts | 354° |
| 2026-04-29 18:20 | 67.34838 | 17.75472 | 22089 ft | 186 kts | 354° |
| 2026-04-29 18:20 | 67.36125 | 17.75732 | 22088 ft | 185 kts | 354° |
| 2026-04-29 18:20 | 67.37404 | 17.75990 | 22102 ft | 185 kts | 354° |
| 2026-04-29 18:20 | 67.38687 | 17.76246 | 22091 ft | 187 kts | 354° |
| 2026-04-29 18:21 | 67.39986 | 17.76512 | 22090 ft | 186 kts | 354° |
| 2026-04-29 18:21 | 67.41280 | 17.76774 | 22087 ft | 187 kts | 354° |
| 2026-04-29 18:21 | 67.42572 | 17.77039 | 22092 ft | 185 kts | 353° |
| 2026-04-29 18:21 | 67.43855 | 17.77300 | 22091 ft | 184 kts | 353° |
| 2026-04-29 18:22 | 67.45134 | 17.77559 | 22096 ft | 184 kts | 353° |
| 2026-04-29 18:22 | 67.46410 | 17.77818 | 22096 ft | 184 kts | 353° |
| 2026-04-29 18:22 | 67.47685 | 17.78078 | 22100 ft | 184 kts | 353° |
| 2026-04-29 18:22 | 67.48962 | 17.78339 | 22103 ft | 183 kts | 353° |
| 2026-04-29 18:23 | 67.50240 | 17.78599 | 22100 ft | 184 kts | 353° |
| 2026-04-29 18:23 | 67.51516 | 17.78860 | 22103 ft | 184 kts | 353° |
| 2026-04-29 18:23 | 67.52778 | 17.79118 | 22100 ft | 184 kts | 353° |
| 2026-04-29 18:23 | 67.54060 | 17.79382 | 22105 ft | 184 kts | 353° |
| 2026-04-29 18:24 | 67.55341 | 17.79645 | 22101 ft | 184 kts | 353° |
| 2026-04-29 18:24 | 67.56613 | 17.79907 | 22104 ft | 183 kts | 353° |
| 2026-04-29 18:24 | 67.57887 | 17.80168 | 22105 ft | 184 kts | 353° |
| 2026-04-29 18:24 | 67.59167 | 17.80431 | 22103 ft | 184 kts | 353° |
| 2026-04-29 18:25 | 67.60450 | 17.80695 | 22104 ft | 184 kts | 353° |
| 2026-04-29 18:25 | 67.61725 | 17.80960 | 22106 ft | 184 kts | 353° |
| 2026-04-29 18:25 | 67.62979 | 17.81220 | 22109 ft | 183 kts | 353° |
| 2026-04-29 18:25 | 67.64248 | 17.81481 | 22108 ft | 183 kts | 353° |
| 2026-04-29 18:26 | 67.65513 | 17.81744 | 22107 ft | 182 kts | 353° |
| 2026-04-29 18:26 | 67.66771 | 17.82004 | 22107 ft | 181 kts | 353° |
| 2026-04-29 18:26 | 67.68031 | 17.82264 | 22109 ft | 181 kts | 353° |
| 2026-04-29 18:26 | 67.69296 | 17.82525 | 22100 ft | 182 kts | 353° |
| 2026-04-29 18:27 | 67.70565 | 17.82791 | 22101 ft | 183 kts | 353° |
| 2026-04-29 18:27 | 67.71814 | 17.83057 | 22096 ft | 177 kts | 353° |
| 2026-04-29 18:27 | 67.73040 | 17.83310 | 22109 ft | 179 kts | 352° |
| 2026-04-29 18:27 | 67.74288 | 17.83564 | 22111 ft | 181 kts | 353° |
| 2026-04-29 18:28 | 67.75547 | 17.83827 | 22106 ft | 181 kts | 353° |
| 2026-04-29 18:28 | 67.76800 | 17.84092 | 22111 ft | 181 kts | 353° |
| 2026-04-29 18:28 | 67.78066 | 17.84356 | 22111 ft | 182 kts | 353° |
| 2026-04-29 18:28 | 67.79330 | 17.84621 | 22113 ft | 182 kts | 353° |
| 2026-04-29 18:29 | 67.80595 | 17.84885 | 22104 ft | 184 kts | 353° |
| 2026-04-29 18:29 | 67.81440 | 17.85063 | 22111 ft | 183 kts | 353° |
| 2026-04-29 18:29 | 67.83141 | 17.85422 | 22113 ft | 184 kts | 353° |
| 2026-04-29 18:29 | 67.84418 | 17.85690 | 22113 ft | 184 kts | 353° |
| 2026-04-29 18:30 | 67.85693 | 17.85959 | 22105 ft | 184 kts | 352° |
| 2026-04-29 18:30 | 67.86976 | 17.86229 | 22103 ft | 184 kts | 352° |
| 2026-04-29 18:30 | 67.88251 | 17.86500 | 22107 ft | 184 kts | 352° |
| 2026-04-29 18:30 | 67.89517 | 17.86766 | 22110 ft | 184 kts | 352° |
| 2026-04-29 18:31 | 67.90793 | 17.87036 | 22110 ft | 184 kts | 352° |
| 2026-04-29 18:31 | 67.92067 | 17.87307 | 22110 ft | 183 kts | 352° |
| 2026-04-29 18:31 | 67.93332 | 17.87576 | 22105 ft | 182 kts | 352° |
| 2026-04-29 18:31 | 67.94601 | 17.87844 | 22105 ft | 183 kts | 352° |
| 2026-04-29 18:32 | 67.95868 | 17.88113 | 22105 ft | 182 kts | 352° |
| 2026-04-29 18:32 | 67.98392 | 17.88650 | 22106 ft | 182 kts | 352° |
| 2026-04-29 18:32 | 67.99645 | 17.88916 | 22108 ft | 182 kts | 352° |
| 2026-04-29 18:33 | 68.00907 | 17.89186 | 22103 ft | 182 kts | 352° |
| 2026-04-29 18:33 | 68.02174 | 17.89457 | 22101 ft | 182 kts | 352° |
| 2026-04-29 18:33 | 68.03435 | 17.89726 | 22103 ft | 182 kts | 352° |
| 2026-04-29 18:33 | 68.04704 | 17.89998 | 22101 ft | 183 kts | 352° |
| 2026-04-29 18:34 | 68.05972 | 17.90270 | 22099 ft | 183 kts | 352° |
| 2026-04-29 18:34 | 68.06828 | 17.90454 | 22095 ft | 182 kts | 352° |
| 2026-04-29 18:34 | 68.08498 | 17.90812 | 22101 ft | 183 kts | 352° |
| 2026-04-29 18:34 | 68.09773 | 17.91084 | 22099 ft | 183 kts | 352° |
| 2026-04-29 18:35 | 68.11048 | 17.91361 | 22097 ft | 184 kts | 352° |
| 2026-04-29 18:35 | 68.12323 | 17.91635 | 22090 ft | 184 kts | 352° |
| 2026-04-29 18:35 | 68.13582 | 17.91905 | 22084 ft | 184 kts | 352° |
| 2026-04-29 18:35 | 68.14871 | 17.92186 | 22100 ft | 184 kts | 352° |
| 2026-04-29 18:36 | 68.16132 | 17.92457 | 22098 ft | 185 kts | 352° |
| 2026-04-29 18:36 | 68.17418 | 17.92736 | 22102 ft | 185 kts | 352° |
| 2026-04-29 18:36 | 68.18703 | 17.93017 | 22097 ft | 184 kts | 352° |
| 2026-04-29 18:36 | 68.19979 | 17.93294 | 22098 ft | 184 kts | 352° |
| 2026-04-29 18:37 | 68.21256 | 17.93571 | 22095 ft | 183 kts | 352° |
| 2026-04-29 18:37 | 68.22514 | 17.93844 | 22098 ft | 183 kts | 352° |
| 2026-04-29 18:37 | 68.23781 | 17.94119 | 22092 ft | 183 kts | 352° |
| 2026-04-29 18:37 | 68.25065 | 17.94400 | 22097 ft | 183 kts | 352° |
| 2026-04-29 18:38 | 68.26321 | 17.94672 | 22082 ft | 183 kts | 352° |
| 2026-04-29 18:38 | 68.27589 | 17.94950 | 22088 ft | 183 kts | 352° |
| 2026-04-29 18:38 | 68.28859 | 17.95229 | 22092 ft | 182 kts | 352° |
| 2026-04-29 18:38 | 68.30133 | 17.95506 | 22091 ft | 183 kts | 352° |
| 2026-04-29 18:39 | 68.31400 | 17.95783 | 22094 ft | 183 kts | 352° |
| 2026-04-29 18:39 | 68.32673 | 17.96064 | 22095 ft | 184 kts | 352° |
| 2026-04-29 18:39 | 68.33951 | 17.96343 | 22093 ft | 184 kts | 352° |
| 2026-04-29 18:39 | 68.35230 | 17.96625 | 22089 ft | 184 kts | 352° |
| 2026-04-29 18:40 | 68.36493 | 17.96904 | 22093 ft | 184 kts | 352° |
| 2026-04-29 18:40 | 68.37779 | 17.97187 | 22094 ft | 184 kts | 352° |
| 2026-04-29 18:40 | 68.39055 | 17.97469 | 22086 ft | 184 kts | 352° |
| 2026-04-29 18:40 | 68.40334 | 17.97751 | 22093 ft | 185 kts | 352° |
| 2026-04-29 18:41 | 68.44160 | 17.98609 | 22142 ft | 183 kts | 352° |
| 2026-04-29 18:41 | 68.45470 | 17.98878 | 21796 ft | 191 kts | 352° |
| 2026-04-29 18:42 | 68.46787 | 17.99184 | 21454 ft | 189 kts | 353° |
| 2026-04-29 18:42 | 68.48084 | 17.99486 | 21111 ft | 185 kts | 352° |
| 2026-04-29 18:42 | 68.49347 | 17.99767 | 20776 ft | 184 kts | 352° |
| 2026-04-29 18:42 | 68.50628 | 18.00043 | 20448 ft | 186 kts | 353° |
| 2026-04-29 18:43 | 68.51915 | 18.00330 | 20118 ft | 185 kts | 353° |
| 2026-04-29 18:43 | 68.53201 | 18.00621 | 19790 ft | 184 kts | 353° |
| 2026-04-29 18:43 | 68.54475 | 18.00908 | 19469 ft | 183 kts | 353° |
| 2026-04-29 18:43 | 68.55760 | 18.01188 | 19153 ft | 187 kts | 354° |
| 2026-04-29 18:44 | 68.57073 | 18.01477 | 18840 ft | 192 kts | 354° |
| 2026-04-29 18:44 | 68.58384 | 18.01507 | 18526 ft | 182 kts | 343° |
| 2026-04-29 18:44 | 68.59622 | 18.01017 | 18194 ft | 180 kts | 343° |
| 2026-04-29 18:44 | 68.60858 | 18.00547 | 17857 ft | 183 kts | 345° |
| 2026-04-29 18:45 | 68.62133 | 18.00078 | 17497 ft | 187 kts | 345° |
| 2026-04-29 18:45 | 68.63424 | 17.99606 | 17148 ft | 187 kts | 344° |
| 2026-04-29 18:45 | 68.64708 | 17.99133 | 16807 ft | 186 kts | 345° |
| 2026-04-29 18:45 | 68.65998 | 17.98652 | 16474 ft | 188 kts | 345° |
| 2026-04-29 18:46 | 68.67295 | 17.98169 | 16138 ft | 189 kts | 345° |
| 2026-04-29 18:46 | 68.68599 | 17.97684 | 15801 ft | 189 kts | 345° |
| 2026-04-29 18:46 | 68.69897 | 17.97202 | 15462 ft | 187 kts | 345° |
| 2026-04-29 18:46 | 68.71186 | 17.96721 | 15138 ft | 186 kts | 345° |
| 2026-04-29 18:47 | 68.72451 | 17.96247 | 14815 ft | 185 kts | 345° |
| 2026-04-29 18:47 | 68.73726 | 17.95768 | 14501 ft | 186 kts | 345° |
| 2026-04-29 18:47 | 68.75014 | 17.95284 | 14180 ft | 186 kts | 345° |
| 2026-04-29 18:47 | 68.76298 | 17.94804 | 13872 ft | 185 kts | 345° |
| 2026-04-29 18:48 | 68.77578 | 17.94323 | 13517 ft | 185 kts | 345° |
| 2026-04-29 18:48 | 68.78855 | 17.93843 | 13163 ft | 185 kts | 345° |
| 2026-04-29 18:48 | 68.80129 | 17.93364 | 12823 ft | 185 kts | 345° |
| 2026-04-29 18:48 | 68.81400 | 17.92884 | 12480 ft | 185 kts | 345° |
| 2026-04-29 18:49 | 68.82677 | 17.92402 | 12145 ft | 184 kts | 345° |
| 2026-04-29 18:49 | 68.83946 | 17.91922 | 11812 ft | 185 kts | 345° |
| 2026-04-29 18:49 | 68.85219 | 17.91441 | 11477 ft | 184 kts | 345° |
| 2026-04-29 18:49 | 68.86485 | 17.90961 | 11154 ft | 184 kts | 345° |
| 2026-04-29 18:50 | 68.87336 | 17.90636 | 10939 ft | 186 kts | 344° |
| 2026-04-29 18:50 | 68.89031 | 17.89993 | 10503 ft | 186 kts | 344° |
| 2026-04-29 18:50 | 68.90320 | 17.89503 | 10190 ft | 187 kts | 344° |
| 2026-04-29 18:50 | 68.91613 | 17.89011 | 9866 ft | 187 kts | 344° |
| 2026-04-29 18:51 | 68.94047 | 17.88085 | 9216 ft | 187 kts | 344° |
| 2026-04-29 18:51 | 68.95350 | 17.87585 | 8871 ft | 189 kts | 344° |
| 2026-04-29 18:51 | 68.96659 | 17.87084 | 8529 ft | 190 kts | 345° |
| 2026-04-29 18:52 | 68.97968 | 17.86585 | 8199 ft | 190 kts | 345° |
| 2026-04-29 18:52 | 68.99273 | 17.86084 | 7869 ft | 192 kts | 345° |
| 2026-04-29 18:52 | 69.00605 | 17.85573 | 7535 ft | 194 kts | 345° |
| 2026-04-29 18:52 | 69.01943 | 17.85062 | 7208 ft | 192 kts | 346° |
| 2026-04-29 18:53 | 69.03259 | 17.84559 | 6882 ft | 190 kts | 345° |
| 2026-04-29 18:53 | 69.04548 | 17.84063 | 6615 ft | 187 kts | 345° |
| 2026-04-29 18:53 | 69.05839 | 17.83565 | 6356 ft | 185 kts | 345° |
| 2026-04-29 18:53 | 69.07143 | 17.83611 | 6075 ft | 187 kts | 0° |
| 2026-04-29 18:54 | 69.08376 | 17.84220 | 6030 ft | 172 kts | 0° |
| 2026-04-29 18:54 | 69.09512 | 17.84761 | 6032 ft | 161 kts | 360° |
| 2026-04-29 18:54 | 69.10602 | 17.85250 | 6018 ft | 165 kts | 359° |
| 2026-04-29 18:54 | 69.11801 | 17.85770 | 6032 ft | 184 kts | 1° |
| 2026-04-29 18:55 | 69.13120 | 17.86377 | 6031 ft | 199 kts | 2° |
| 2026-04-29 18:55 | 69.14510 | 17.87039 | 6035 ft | 207 kts | 2° |
| 2026-04-29 18:55 | 69.15953 | 17.87721 | 6024 ft | 210 kts | 2° |
| 2026-04-29 18:55 | 69.17398 | 17.88398 | 6033 ft | 211 kts | 2° |
| 2026-04-29 18:56 | 69.18858 | 17.89079 | 6027 ft | 212 kts | 2° |
| 2026-04-29 18:56 | 69.20317 | 17.89758 | 6024 ft | 213 kts | 2° |
| 2026-04-29 18:56 | 69.21782 | 17.90443 | 6024 ft | 214 kts | 2° |
| 2026-04-29 18:56 | 69.23265 | 17.91137 | 6023 ft | 215 kts | 2° |
| 2026-04-29 18:57 | 69.24746 | 17.91832 | 6022 ft | 215 kts | 2° |
| 2026-04-29 18:57 | 69.26221 | 17.92523 | 6027 ft | 216 kts | 2° |
| 2026-04-29 18:57 | 69.27684 | 17.93211 | 6029 ft | 216 kts | 2° |
| 2026-04-29 18:57 | 69.29166 | 17.93909 | 6025 ft | 215 kts | 2° |
| 2026-04-29 18:58 | 69.30647 | 17.94606 | 6021 ft | 215 kts | 2° |
| 2026-04-29 18:58 | 69.32126 | 17.95303 | 6019 ft | 215 kts | 2° |
| 2026-04-29 18:58 | 69.33591 | 17.95994 | 6023 ft | 216 kts | 2° |
| 2026-04-29 18:58 | 69.35097 | 17.96706 | 6020 ft | 216 kts | 2° |
| 2026-04-29 18:59 | 69.36571 | 17.97406 | 6018 ft | 215 kts | 2° |
| 2026-04-29 18:59 | 69.38045 | 17.98106 | 6018 ft | 215 kts | 2° |
| 2026-04-29 18:59 | 69.39491 | 17.99284 | 6012 ft | 220 kts | 18° |
| 2026-04-29 18:59 | 69.40853 | 18.01209 | 6016 ft | 222 kts | 20° |
| 2026-04-29 19:00 | 69.42238 | 18.03164 | 6016 ft | 224 kts | 19° |
| 2026-04-29 19:00 | 69.43654 | 18.05148 | 6013 ft | 225 kts | 19° |
| 2026-04-29 19:00 | 69.45049 | 18.07106 | 6005 ft | 225 kts | 19° |
| 2026-04-29 19:00 | 69.46448 | 18.09075 | 6009 ft | 224 kts | 19° |
| 2026-04-29 19:01 | 69.47843 | 18.11039 | 6008 ft | 223 kts | 19° |
| 2026-04-29 19:01 | 69.49238 | 18.13004 | 6008 ft | 224 kts | 19° |
| 2026-04-29 19:01 | 69.50637 | 18.14981 | 6010 ft | 224 kts | 19° |
| 2026-04-29 19:01 | 69.52034 | 18.16958 | 6005 ft | 224 kts | 19° |
| 2026-04-29 19:02 | 69.53442 | 18.18954 | 5988 ft | 225 kts | 20° |
| 2026-04-29 19:02 | 69.54358 | 18.20258 | 6014 ft | 220 kts | 19° |
| 2026-04-29 19:02 | 69.56214 | 18.22886 | 6000 ft | 223 kts | 20° |
| 2026-04-29 19:02 | 69.57591 | 18.24846 | 5989 ft | 224 kts | 20° |
| 2026-04-29 19:03 | 69.58983 | 18.26833 | 5982 ft | 220 kts | 21° |
| 2026-04-29 19:03 | 69.60331 | 18.28762 | 6011 ft | 218 kts | 19° |
| 2026-04-29 19:03 | 69.61702 | 18.30711 | 6004 ft | 221 kts | 19° |
| 2026-04-29 19:03 | 69.63085 | 18.32688 | 5995 ft | 223 kts | 21° |
| 2026-04-29 19:04 | 69.64461 | 18.34672 | 6018 ft | 222 kts | 20° |
| 2026-04-29 19:04 | 69.65858 | 18.36676 | 5972 ft | 222 kts | 20° |
| 2026-04-29 19:04 | 69.67208 | 18.38624 | 6009 ft | 215 kts | 19° |
| 2026-04-29 19:04 | 69.68566 | 18.40563 | 5977 ft | 219 kts | 20° |
| 2026-04-29 19:05 | 69.69912 | 18.42505 | 6004 ft | 220 kts | 20° |
| 2026-04-29 19:05 | 69.71292 | 18.44500 | 6006 ft | 224 kts | 20° |
| 2026-04-29 19:05 | 69.72692 | 18.46527 | 5999 ft | 224 kts | 19° |
| 2026-04-29 19:05 | 69.74090 | 18.48549 | 6001 ft | 224 kts | 20° |
| 2026-04-29 19:06 | 69.75498 | 18.50587 | 6000 ft | 226 kts | 20° |
| 2026-04-29 19:06 | 69.76886 | 18.52599 | 5990 ft | 229 kts | 20° |
| 2026-04-29 19:06 | 69.79755 | 18.56781 | 5988 ft | 230 kts | 20° |
| 2026-04-29 19:07 | 69.81169 | 18.58842 | 5989 ft | 229 kts | 20° |
| 2026-04-29 19:07 | 69.82130 | 18.60246 | 5988 ft | 229 kts | 20° |
| 2026-04-29 19:07 | 69.84010 | 18.62994 | 5991 ft | 228 kts | 20° |
| 2026-04-29 19:07 | 69.85427 | 18.65070 | 5999 ft | 229 kts | 20° |
| 2026-04-29 19:08 | 69.86858 | 18.67169 | 5988 ft | 232 kts | 20° |
| 2026-04-29 19:08 | 69.88301 | 18.69290 | 5985 ft | 232 kts | 21° |
| 2026-04-29 19:08 | 69.89730 | 18.71398 | 5984 ft | 229 kts | 21° |
| 2026-04-29 19:08 | 69.91150 | 18.73492 | 5980 ft | 228 kts | 21° |
| 2026-04-29 19:09 | 69.92571 | 18.75587 | 5988 ft | 229 kts | 21° |
| 2026-04-29 19:09 | 69.94002 | 18.77702 | 5973 ft | 230 kts | 20° |
| 2026-04-29 19:09 | 69.95449 | 18.79843 | 5646 ft | 235 kts | 21° |
| 2026-04-29 19:09 | 69.96889 | 18.82163 | 5306 ft | 238 kts | 28° |
| 2026-04-29 19:10 | 69.97986 | 18.85890 | 4989 ft | 251 kts | 62° |
| 2026-04-29 19:10 | 69.98279 | 18.90802 | 4960 ft | 244 kts | 96° |
| 2026-04-29 19:10 | 69.97698 | 18.95262 | 4962 ft | 230 kts | 130° |
| 2026-04-29 19:10 | 69.96508 | 18.98063 | 4612 ft | 215 kts | 165° |
| 2026-04-29 19:11 | 69.95151 | 18.98590 | 4473 ft | 182 kts | 190° |
| 2026-04-29 19:11 | 69.93961 | 18.98643 | 4471 ft | 159 kts | 182° |
| 2026-04-29 19:11 | 69.93030 | 18.99165 | 4470 ft | 146 kts | 178° |
| 2026-04-29 19:11 | 69.92054 | 18.99784 | 4486 ft | 143 kts | 179° |
| 2026-04-29 19:12 | 69.91072 | 19.00410 | 4485 ft | 145 kts | 178° |
| 2026-04-29 19:12 | 69.90094 | 19.01050 | 4470 ft | 141 kts | 177° |
| 2026-04-29 19:12 | 69.89171 | 19.01670 | 4483 ft | 132 kts | 178° |
| 2026-04-29 19:12 | 69.88883 | 19.01860 | 4484 ft | 131 kts | 179° |
| 2026-04-29 19:13 | 69.87348 | 19.02851 | 4474 ft | 137 kts | 179° |
| 2026-04-29 19:13 | 69.86439 | 19.03419 | 4470 ft | 127 kts | 184° |
| 2026-04-29 19:13 | 69.85641 | 19.03256 | 4476 ft | 107 kts | 213° |
| 2026-04-29 19:13 | 69.85116 | 19.01971 | 4493 ft | 99 kts | 233° |
| 2026-04-29 19:14 | 69.84365 | 19.01455 | 4294 ft | 135 kts | 180° |
| 2026-04-29 19:14 | 69.83416 | 19.02159 | 4179 ft | 141 kts | 176° |
| 2026-04-29 19:14 | 69.82545 | 19.02158 | 4162 ft | 112 kts | 218° |
| 2026-04-29 19:14 | 69.81861 | 19.01262 | 4108 ft | 110 kts | 208° |
| 2026-04-29 19:15 | 69.81108 | 19.00617 | 4020 ft | 114 kts | 207° |
| 2026-04-29 19:15 | 69.80340 | 19.00034 | 3845 ft | 113 kts | 205° |
| 2026-04-29 19:15 | 69.79590 | 18.99499 | 3741 ft | 111 kts | 205° |
| 2026-04-29 19:15 | 69.78831 | 18.98961 | 3620 ft | 110 kts | 205° |
| 2026-04-29 19:16 | 69.78101 | 18.98444 | 3465 ft | 110 kts | 204° |
| 2026-04-29 19:16 | 69.77347 | 18.97944 | 3347 ft | 111 kts | 203° |
| 2026-04-29 19:16 | 69.76591 | 18.97429 | 3266 ft | 112 kts | 203° |
| 2026-04-29 19:16 | 69.75827 | 18.96923 | 3202 ft | 112 kts | 202° |
| 2026-04-29 19:17 | 69.75075 | 18.96412 | 3121 ft | 113 kts | 202° |
| 2026-04-29 19:17 | 69.74580 | 18.96088 | 3073 ft | 105 kts | 202° |
| 2026-04-29 19:17 | 69.73748 | 18.95526 | 3043 ft | 82 kts | 204° |
| 2026-04-29 19:17 | 69.73397 | 18.95295 | 3027 ft | 72 kts | 205° |
| 2026-04-29 19:18 | 69.72847 | 18.95175 | 2653 ft | 82 kts | 196° |
| 2026-04-29 19:18 | 69.72467 | 18.95010 | 2273 ft | 83 kts | 201° |
| 2026-04-29 19:18 | 69.71717 | 18.94529 | 1538 ft | 80 kts | 199° |
| 2026-04-29 19:18 | 69.71195 | 18.94031 | 1019 ft | 77 kts | 199° |
| 2026-04-29 19:19 | 69.70667 | 18.93510 | 562 ft | 81 kts | 196° |
| 2026-04-29 19:19 | 69.70120 | 18.93078 | 252 ft | 82 kts | 191° |
| 2026-04-29 19:19 | 69.69581 | 18.92723 | 65 ft | 76 kts | 192° |
| 2026-04-29 19:19 | 69.69126 | 18.92428 | 19 ft | 56 kts | 193° |
| 2026-04-29 19:20 | 69.68809 | 18.92216 | 18 ft | 38 kts | 193° |
| 2026-04-29 19:20 | 69.68606 | 18.92076 | 20 ft | 23 kts | 193° |
| 2026-04-29 19:20 | 69.68500 | 18.91996 | 25 ft | 9 kts | 193° |
| 2026-04-29 19:21 | 69.68472 | 18.91976 | 25 ft | 2 kts | 193° |
| 2026-04-29 19:21 | 69.68439 | 18.91953 | 26 ft | 6 kts | 193° |
| 2026-04-29 19:21 | 69.68394 | 18.91908 | 27 ft | 6 kts | 206° |
| 2026-04-29 19:21 | 69.68349 | 18.91857 | 27 ft | 7 kts | 206° |
| 2026-04-29 19:22 | 69.68324 | 18.91804 | 27 ft | 6 kts | 242° |
| 2026-04-29 19:22 | 69.68325 | 18.91669 | 25 ft | 6 kts | 281° |
| 2026-04-29 19:22 | 69.68334 | 18.91557 | 26 ft | 0 kts | 283° |
| 2026-04-29 19:23 | 69.68345 | 18.91425 | 25 ft | 6 kts | 284° |
| 2026-04-29 19:23 | 69.68352 | 18.91335 | 23 ft | 7 kts | 281° |
| 2026-04-29 19:23 | 69.68360 | 18.91198 | 24 ft | 5 kts | 276° |
| 2026-04-29 19:23 | 69.68361 | 18.91186 | 24 ft | 0 kts | 276° |